Observation data for Lake Alan Henry on 05/24/2020      Previous  Date  Next       Current Mesonet Observations  Soil Data  Daily Summary Page  Observations in Plain Language
KAHS 240500Z 11009KT 18/14 A2985 RMK A01 T01780139  RH  078%=      5-min Rain = 0
KAHS 240501Z 11010KT 18/14 A2985 RMK A01 T01780139  RH  078%=      5-min Rain = 0
KAHS 240502Z 12008KT 18/14 A2985 RMK A01 T01780139  RH  078%=      5-min Rain = 0
KAHS 240503Z 12008KT 18/14 A2986 RMK A01 T01780139  RH  078%=      5-min Rain = 0
KAHS 240504Z 11007KT 18/14 A2986 RMK A01 T01780139  RH  078%=      5-min Rain = 0
KAHS 240505Z 11010KT 18/14 A2986 RMK A01 T01780139  RH  078%=      5-min Rain = 0
KAHS 240506Z 10008KT 18/14 A2985 RMK A01 T01780139  RH  078%=      5-min Rain = 0
KAHS 240507Z 10007KT 18/14 A2985 RMK A01 T01780139  RH  078%=      5-min Rain = 0
KAHS 240508Z 11007KT 18/14 A2985 RMK A01 T01780139  RH  078%=      5-min Rain = 0
KAHS 240509Z 11006KT 18/14 A2985 RMK A01 T01770139  RH  078%=      5-min Rain = 0
KAHS 240510Z 10008KT 18/14 A2985 RMK A01 T01760140  RH  079%=      5-min Rain = 0
KAHS 240511Z 11008KT 18/14 A2985 RMK A01 T01760140  RH  079%=      5-min Rain = 0
KAHS 240512Z 11007KT 18/14 A2985 RMK A01 T01760140  RH  079%=      5-min Rain = 0
KAHS 240513Z 11007KT 18/14 A2985 RMK A01 T01760140  RH  079%=      5-min Rain = 0
KAHS 240514Z 11008KT 18/14 A2985 RMK A01 T01760140  RH  080%=      5-min Rain = 0
KAHS 240515Z 12008KT 18/14 A2985 RMK A01 T01760140  RH  080%=      5-min Rain = 0
KAHS 240516Z 12008KT 18/14 A2985 RMK A01 T01760139  RH  079%=      5-min Rain = 0
KAHS 240517Z 11005KT 18/14 A2985 RMK A01 T01760139  RH  079%=      5-min Rain = 0
KAHS 240518Z 12006KT 18/14 A2985 RMK A01 T01760140  RH  079%=      5-min Rain = 0
KAHS 240519Z 13008KT 18/14 A2985 RMK A01 T01760139  RH  079%=      5-min Rain = 0
KAHS 240520Z 13007KT 18/14 A2985 RMK A01 T01760139  RH  079%=      5-min Rain = 0
KAHS 240521Z 12009KT 18/14 A2985 RMK A01 T01760139  RH  079%=      5-min Rain = 0
KAHS 240522Z 13007KT 18/14 A2985 RMK A01 T01760139  RH  079%=      5-min Rain = 0
KAHS 240523Z 13007KT 18/14 A2985 RMK A01 T01760139  RH  079%=      5-min Rain = 0
KAHS 240524Z 13007KT 18/14 A2985 RMK A01 T01760139  RH  079%=      5-min Rain = 0
KAHS 240525Z 13007KT 18/14 A2985 RMK A01 T01760139  RH  079%=      5-min Rain = 0
KAHS 240526Z 13006KT 18/14 A2985 RMK A01 T01760139  RH  079%=      5-min Rain = 0
KAHS 240527Z 13006KT 18/14 A2985 RMK A01 T01750139  RH  079%=      5-min Rain = 0
KAHS 240528Z 14008KT 18/14 A2985 RMK A01 T01750139  RH  080%=      5-min Rain = 0
KAHS 240529Z 13007KT 18/14 A2985 RMK A01 T01750139  RH  080%=      5-min Rain = 0
KAHS 240530Z 13008KT 17/14 A2985 RMK A01 T01740139  RH  080%=      5-min Rain = 0
KAHS 240531Z 13007KT 18/14 A2985 RMK A01 T01750139  RH  080%=      5-min Rain = 0
KAHS 240532Z 13006KT 18/14 A2985 RMK A01 T01750140  RH  080%=      5-min Rain = 0
KAHS 240533Z 13007KT 17/14 A2985 RMK A01 T01740139  RH  080%=      5-min Rain = 0
KAHS 240534Z 13007KT 17/14 A2985 RMK A01 T01740139  RH  080%=      5-min Rain = 0
KAHS 240535Z 13006KT 17/14 A2985 RMK A01 T01740139  RH  080%=      5-min Rain = 0
KAHS 240536Z 14005KT 17/14 A2985 RMK A01 T01740139  RH  080%=      5-min Rain = 0
KAHS 240537Z 14006KT 17/14 A2985 RMK A01 T01740139  RH  080%=      5-min Rain = 0
KAHS 240538Z 14006KT 17/14 A2985 RMK A01 T01740139  RH  080%=      5-min Rain = 0
KAHS 240539Z 14006KT 18/14 A2985 RMK A01 T01750139  RH  080%=      5-min Rain = 0
KAHS 240540Z 14007KT 18/14 A2985 RMK A01 T01750139  RH  079%=      5-min Rain = 0
KAHS 240541Z 14006KT 18/14 A2985 RMK A01 T01750139  RH  079%=      5-min Rain = 0
KAHS 240542Z 15006KT 18/14 A2985 RMK A01 T01750139  RH  079%=      5-min Rain = 0
KAHS 240543Z 16005KT 17/14 A2985 RMK A01 T01740139  RH  080%=      5-min Rain = 0
KAHS 240544Z 15005KT 17/14 A2985 RMK A01 T01740140  RH  080%=      5-min Rain = 0
KAHS 240545Z 15006KT 17/14 A2985 RMK A01 T01740140  RH  080%=      5-min Rain = 0
KAHS 240546Z 14007KT 17/14 A2985 RMK A01 T01740139  RH  080%=      5-min Rain = 0
KAHS 240547Z 14007KT 17/14 A2985 RMK A01 T01740139  RH  080%=      5-min Rain = 0
KAHS 240548Z 14005KT 18/14 A2985 RMK A01 T01750139  RH  079%=      5-min Rain = 0
KAHS 240549Z 13005KT 18/14 A2985 RMK A01 T01750139  RH  080%=      5-min Rain = 0
KAHS 240550Z 13006KT 17/14 A2985 RMK A01 T01740139  RH  080%=      5-min Rain = 0
KAHS 240551Z 13005KT 17/14 A2985 RMK A01 T01740139  RH  080%=      5-min Rain = 0
KAHS 240552Z 13005KT 17/14 A2985 RMK A01 T01740139  RH  080%=      5-min Rain = 0
KAHS 240553Z 13005KT 17/14 A2985 RMK A01 T01730139  RH  080%=      5-min Rain = 0
KAHS 240554Z 14005KT 17/14 A2985 RMK A01 T01730139  RH  081%=      5-min Rain = 0
KAHS 240555Z 14005KT 17/14 A2985 RMK A01 T01720139  RH  081%=      5-min Rain = 0
KAHS 240556Z 15005KT 17/14 A2985 RMK A01 T01720139  RH  081%=      5-min Rain = 0
KAHS 240557Z 15005KT 17/14 A2985 RMK A01 T01720139  RH  081%=      5-min Rain = 0
KAHS 240558Z 15006KT 17/14 A2985 RMK A01 T01720140  RH  082%=      5-min Rain = 0
KAHS 240559Z 16005KT 17/14 A2985 RMK A01 T01710140  RH  082%=      5-min Rain = 0
KAHS 240600Z 15005KT 17/14 A2985 RMK A01 T01710140  RH  082%=      5-min Rain = 0
KAHS 240601Z 15006KT 17/14 A2985 RMK A01 T01710140  RH  082%=      5-min Rain = 0
KAHS 240602Z 15006KT 17/14 A2985 RMK A01 T01720141  RH  082%=      5-min Rain = 0
KAHS 240603Z 16007KT 17/14 A2985 RMK A01 T01720141  RH  082%=      5-min Rain = 0
KAHS 240604Z 16007KT 17/14 A2985 RMK A01 T01720141  RH  082%=      5-min Rain = 0
KAHS 240605Z 16006KT 17/14 A2985 RMK A01 T01730142  RH  082%=      5-min Rain = 0
KAHS 240606Z 16006KT 17/14 A2985 RMK A01 T01730142  RH  082%=      5-min Rain = 0
KAHS 240607Z 16005KT 17/14 A2985 RMK A01 T01740142  RH  082%=      5-min Rain = 0
KAHS 240608Z 16004KT 17/14 A2985 RMK A01 T01740142  RH  082%=      5-min Rain = 0
KAHS 240609Z 17005KT 17/14 A2985 RMK A01 T01740142  RH  082%=      5-min Rain = 0
KAHS 240610Z 17004KT 17/14 A2985 RMK A01 T01740142  RH  082%=      5-min Rain = 0
KAHS 240611Z 16003KT 17/14 A2985 RMK A01 T01740142  RH  082%=      5-min Rain = 0
KAHS 240612Z 16003KT 17/14 A2985 RMK A01 T01730142  RH  082%=      5-min Rain = 0
KAHS 240613Z 17004KT 17/14 A2985 RMK A01 T01730142  RH  082%=      5-min Rain = 0
KAHS 240614Z 18005KT 17/14 A2985 RMK A01 T01730141  RH  082%=      5-min Rain = 0
KAHS 240615Z 18005KT 17/14 A2985 RMK A01 T01720141  RH  082%=      5-min Rain = 0
KAHS 240616Z 17005KT 17/14 A2985 RMK A01 T01720140  RH  082%=      5-min Rain = 0
KAHS 240617Z 15004KT 17/14 A2984 RMK A01 T01720140  RH  081%=      5-min Rain = 0
KAHS 240618Z 14005KT 17/14 A2984 RMK A01 T01720140  RH  081%=      5-min Rain = 0
KAHS 240619Z 14006KT 17/14 A2984 RMK A01 T01730139  RH  081%=      5-min Rain = 0
KAHS 240620Z 14006KT 17/14 A2984 RMK A01 T01730138  RH  080%=      5-min Rain = 0
KAHS 240621Z 15005KT 17/14 A2985 RMK A01 T01740138  RH  079%=      5-min Rain = 0
KAHS 240622Z 15005KT 17/14 A2985 RMK A01 T01740138  RH  079%=      5-min Rain = 0
KAHS 240623Z 16005KT 17/14 A2985 RMK A01 T01740138  RH  080%=      5-min Rain = 0
KAHS 240624Z 16005KT 17/14 A2985 RMK A01 T01740139  RH  080%=      5-min Rain = 0
KAHS 240625Z 17004KT 17/14 A2984 RMK A01 T01730139  RH  080%=      5-min Rain = 0
KAHS 240626Z 16004KT 17/14 A2984 RMK A01 T01730139  RH  080%=      5-min Rain = 0
KAHS 240627Z 15004KT 17/14 A2984 RMK A01 T01730139  RH  080%=      5-min Rain = 0
KAHS 240628Z 15005KT 17/14 A2984 RMK A01 T01730139  RH  080%=      5-min Rain = 0
KAHS 240629Z 15004KT 17/14 A2984 RMK A01 T01730139  RH  080%=      5-min Rain = 0
KAHS 240630Z 15004KT 17/14 A2984 RMK A01 T01730139  RH  081%=      5-min Rain = 0
KAHS 240631Z 14005KT 17/14 A2984 RMK A01 T01730139  RH  081%=      5-min Rain = 0
KAHS 240632Z 15006KT 17/14 A2984 RMK A01 T01730140  RH  081%=      5-min Rain = 0
KAHS 240633Z 15005KT 17/14 A2984 RMK A01 T01740139  RH  080%=      5-min Rain = 0
KAHS 240634Z 14006KT 17/14 A2984 RMK A01 T01740139  RH  080%=      5-min Rain = 0
KAHS 240635Z 14006KT 18/14 A2984 RMK A01 T01750139  RH  080%=      5-min Rain = 0
KAHS 240636Z 14006KT 18/14 A2984 RMK A01 T01750139  RH  079%=      5-min Rain = 0
KAHS 240637Z 14006KT 18/14 A2984 RMK A01 T01760138  RH  078%=      5-min Rain = 0
KAHS 240638Z 14005KT 18/14 A2984 RMK A01 T01760138  RH  078%=      5-min Rain = 0
KAHS 240639Z 15005KT 18/14 A2984 RMK A01 T01760137  RH  078%=      5-min Rain = 0
KAHS 240640Z 14005KT 18/14 A2984 RMK A01 T01760137  RH  078%=      5-min Rain = 0
KAHS 240641Z 14005KT 18/14 A2984 RMK A01 T01760137  RH  077%=      5-min Rain = 0
KAHS 240642Z 14005KT 18/14 A2984 RMK A01 T01760136  RH  077%=      5-min Rain = 0
KAHS 240643Z 15005KT 18/14 A2984 RMK A01 T01760136  RH  077%=      5-min Rain = 0
KAHS 240644Z 16005KT 18/14 A2984 RMK A01 T01760136  RH  077%=      5-min Rain = 0
KAHS 240645Z 16005KT 18/14 A2984 RMK A01 T01760136  RH  078%=      5-min Rain = 0
KAHS 240646Z 16006KT 18/14 A2984 RMK A01 T01760137  RH  078%=      5-min Rain = 0
KAHS 240647Z 16005KT 18/14 A2984 RMK A01 T01760137  RH  078%=      5-min Rain = 0
KAHS 240648Z 14005KT 18/14 A2984 RMK A01 T01760138  RH  078%=      5-min Rain = 0
KAHS 240649Z 15006KT 18/14 A2984 RMK A01 T01760138  RH  078%=      5-min Rain = 0
KAHS 240650Z 14006KT 18/14 A2984 RMK A01 T01760138  RH  078%=      5-min Rain = 0
KAHS 240651Z 13006KT 18/14 A2984 RMK A01 T01770138  RH  078%=      5-min Rain = 0
KAHS 240652Z 14006KT 18/14 A2984 RMK A01 T01770137  RH  077%=      5-min Rain = 0
KAHS 240653Z 13006KT 18/14 A2984 RMK A01 T01780136  RH  077%=      5-min Rain = 0
KAHS 240654Z 12006KT 18/14 A2984 RMK A01 T01780136  RH  076%=      5-min Rain = 0
KAHS 240655Z 13006KT 18/14 A2984 RMK A01 T01780136  RH  076%=      5-min Rain = 0
KAHS 240656Z 14006KT 18/14 A2984 RMK A01 T01780136  RH  076%=      5-min Rain = 0
KAHS 240657Z 14005KT 18/14 A2984 RMK A01 T01780136  RH  076%=      5-min Rain = 0
KAHS 240658Z 14005KT 18/14 A2984 RMK A01 T01780135  RH  076%=      5-min Rain = 0
KAHS 240659Z 14004KT 18/14 A2984 RMK A01 T01780136  RH  076%=      5-min Rain = 0
KAHS 240700Z 13004KT 18/14 A2984 RMK A01 T01770135  RH  077%=      5-min Rain = 0
KAHS 240701Z 14004KT 18/14 A2985 RMK A01 T01770135  RH  077%=      5-min Rain = 0
KAHS 240702Z 14004KT 18/14 A2985 RMK A01 T01760135  RH  077%=      5-min Rain = 0
KAHS 240703Z 14004KT 18/13 A2985 RMK A01 T01760134  RH  076%=      5-min Rain = 0
KAHS 240704Z 14004KT 18/13 A2985 RMK A01 T01760134  RH  076%=      5-min Rain = 0
KAHS 240705Z 15005KT 18/13 A2985 RMK A01 T01760134  RH  076%=      5-min Rain = 0
KAHS 240706Z 15005KT 18/13 A2985 RMK A01 T01760134  RH  076%=      5-min Rain = 0
KAHS 240707Z 14005KT 18/13 A2985 RMK A01 T01760134  RH  076%=      5-min Rain = 0
KAHS 240708Z 13004KT 18/13 A2985 RMK A01 T01760134  RH  076%=      5-min Rain = 0
KAHS 240709Z 13004KT 18/13 A2985 RMK A01 T01770133  RH  076%=      5-min Rain = 0
KAHS 240710Z 14004KT 18/13 A2985 RMK A01 T01770133  RH  075%=      5-min Rain = 0
KAHS 240711Z 15004KT 18/13 A2985 RMK A01 T01770133  RH  075%=      5-min Rain = 0
KAHS 240712Z 15005KT 18/13 A2985 RMK A01 T01770133  RH  076%=      5-min Rain = 0
KAHS 240713Z 14005KT 18/13 A2985 RMK A01 T01770133  RH  075%=      5-min Rain = 0
KAHS 240714Z 14006KT 18/13 A2985 RMK A01 T01780133  RH  075%=      5-min Rain = 0
KAHS 240715Z 14006KT 18/13 A2985 RMK A01 T01780133  RH  075%=      5-min Rain = 0
KAHS 240716Z 14005KT 18/13 A2985 RMK A01 T01780133  RH  075%=      5-min Rain = 0
KAHS 240717Z 14005KT 18/13 A2985 RMK A01 T01790133  RH  074%=      5-min Rain = 0
KAHS 240718Z 15005KT 18/13 A2985 RMK A01 T01790132  RH  074%=      5-min Rain = 0
KAHS 240719Z 14004KT 18/13 A2985 RMK A01 T01790132  RH  074%=      5-min Rain = 0
KAHS 240720Z 13005KT 18/13 A2985 RMK A01 T01790132  RH  074%=      5-min Rain = 0
KAHS 240721Z 12004KT 18/13 A2985 RMK A01 T01800132  RH  074%=      5-min Rain = 0
KAHS 240722Z 12005KT 18/13 A2985 RMK A01 T01800132  RH  073%=      5-min Rain = 0
KAHS 240723Z 12006KT 18/13 A2985 RMK A01 T01800132  RH  073%=      5-min Rain = 0
KAHS 240724Z 12005KT 18/13 A2985 RMK A01 T01810132  RH  073%=      5-min Rain = 0
KAHS 240725Z 12006KT 18/13 A2985 RMK A01 T01820132  RH  072%=      5-min Rain = 0
KAHS 240726Z 12007KT 18/13 A2985 RMK A01 T01820131  RH  072%=      5-min Rain = 0
KAHS 240727Z 12006KT 18/13 A2985 RMK A01 T01810131  RH  072%=      5-min Rain = 0
KAHS 240728Z 10006KT 18/13 A2985 RMK A01 T01810131  RH  073%=      5-min Rain = 0
KAHS 240729Z 11007KT 18/13 A2985 RMK A01 T01800132  RH  073%=      5-min Rain = 0
KAHS 240730Z 11006KT 18/13 A2985 RMK A01 T01800131  RH  073%=      5-min Rain = 0
KAHS 240731Z 12005KT 18/13 A2985 RMK A01 T01810130  RH  072%=      5-min Rain = 0
KAHS 240732Z 13006KT 18/13 A2985 RMK A01 T01810129  RH  072%=      5-min Rain = 0
KAHS 240733Z 13004KT 18/13 A2985 RMK A01 T01810129  RH  071%=      5-min Rain = 0
KAHS 240734Z 14003KT 18/13 A2985 RMK A01 T01810130  RH  072%=      5-min Rain = 0
KAHS 240735Z 14003KT 18/13 A2985 RMK A01 T01800130  RH  072%=      5-min Rain = 0
KAHS 240736Z 12003KT 18/13 A2985 RMK A01 T01800130  RH  073%=      5-min Rain = 0
KAHS 240737Z 12003KT 18/13 A2985 RMK A01 T01790130  RH  073%=      5-min Rain = 0
KAHS 240738Z 12002KT 18/13 A2985 RMK A01 T01790130  RH  073%=      5-min Rain = 0
KAHS 240739Z 11003KT 18/13 A2985 RMK A01 T01780130  RH  073%=      5-min Rain = 0
KAHS 240740Z 11003KT 18/13 A2985 RMK A01 T01770130  RH  074%=      5-min Rain = 0
KAHS 240741Z 09003KT 18/13 A2985 RMK A01 T01770130  RH  074%=      5-min Rain = 0
KAHS 240742Z 09004KT 18/13 A2985 RMK A01 T01760130  RH  074%=      5-min Rain = 0
KAHS 240743Z 10004KT 18/13 A2985 RMK A01 T01760129  RH  074%=      5-min Rain = 0
KAHS 240744Z 12003KT 18/13 A2985 RMK A01 T01760130  RH  074%=      5-min Rain = 0
KAHS 240745Z 11003KT 18/13 A2985 RMK A01 T01760130  RH  074%=      5-min Rain = 0
KAHS 240746Z 12005KT 18/13 A2985 RMK A01 T01760130  RH  074%=      5-min Rain = 0
KAHS 240747Z 11005KT 18/13 A2985 RMK A01 T01760129  RH  074%=      5-min Rain = 0
KAHS 240748Z 10005KT 18/13 A2985 RMK A01 T01770129  RH  074%=      5-min Rain = 0
KAHS 240749Z 10004KT 18/13 A2985 RMK A01 T01760130  RH  074%=      5-min Rain = 0
KAHS 240750Z 11005KT 18/13 A2985 RMK A01 T01760129  RH  074%=      5-min Rain = 0
KAHS 240751Z 11003KT 18/13 A2985 RMK A01 T01760129  RH  074%=      5-min Rain = 0
KAHS 240752Z 12003KT 18/13 A2985 RMK A01 T01760129  RH  074%=      5-min Rain = 0
KAHS 240753Z 12003KT 18/13 A2985 RMK A01 T01760129  RH  074%=      5-min Rain = 0
KAHS 240754Z 12003KT 18/13 A2985 RMK A01 T01760129  RH  074%=      5-min Rain = 0
KAHS 240755Z 12003KT 18/13 A2985 RMK A01 T01760129  RH  074%=      5-min Rain = 0
KAHS 240756Z 12003KT 18/13 A2985 RMK A01 T01750129  RH  074%=      5-min Rain = 0
KAHS 240757Z 11004KT 18/13 A2985 RMK A01 T01750130  RH  075%=      5-min Rain = 0
KAHS 240758Z 11003KT 17/13 A2985 RMK A01 T01740129  RH  075%=      5-min Rain = 0
KAHS 240759Z 11003KT 18/13 A2985 RMK A01 T01750129  RH  074%=      5-min Rain = 0
KAHS 240800Z 10003KT 18/13 A2985 RMK A01 T01750129  RH  074%=      5-min Rain = 0
KAHS 240801Z 11003KT 18/13 A2984 RMK A01 T01750128  RH  074%=      5-min Rain = 0
KAHS 240802Z 11003KT 18/13 A2984 RMK A01 T01760128  RH  073%=      5-min Rain = 0
KAHS 240803Z 12003KT 18/13 A2984 RMK A01 T01770128  RH  073%=      5-min Rain = 0
KAHS 240804Z 13003KT 18/13 A2985 RMK A01 T01770128  RH  073%=      5-min Rain = 0
KAHS 240805Z 13002KT 18/13 A2985 RMK A01 T01770128  RH  073%=      5-min Rain = 0
KAHS 240806Z 13002KT 18/13 A2985 RMK A01 T01760127  RH  073%=      5-min Rain = 0
KAHS 240807Z 14003KT 18/13 A2985 RMK A01 T01760127  RH  073%=      5-min Rain = 0
KAHS 240808Z 13004KT 18/13 A2985 RMK A01 T01760128  RH  073%=      5-min Rain = 0
KAHS 240809Z 13003KT 18/13 A2985 RMK A01 T01760128  RH  073%=      5-min Rain = 0
KAHS 240810Z 14005KT 18/13 A2985 RMK A01 T01760128  RH  073%=      5-min Rain = 0
KAHS 240811Z 13005KT 18/13 A2985 RMK A01 T01770127  RH  073%=      5-min Rain = 0
KAHS 240812Z 13003KT 18/13 A2985 RMK A01 T01770127  RH  072%=      5-min Rain = 0
KAHS 240813Z 13004KT 18/13 A2985 RMK A01 T01770127  RH  072%=      5-min Rain = 0
KAHS 240814Z 15005KT 18/13 A2985 RMK A01 T01770127  RH  073%=      5-min Rain = 0
KAHS 240815Z 13005KT 18/13 A2985 RMK A01 T01770128  RH  073%=      5-min Rain = 0
KAHS 240816Z 13004KT 18/13 A2985 RMK A01 T01760128  RH  074%=      5-min Rain = 0
KAHS 240817Z 14004KT 18/13 A2985 RMK A01 T01760129  RH  074%=      5-min Rain = 0
KAHS 240818Z 14006KT 18/13 A2985 RMK A01 T01760129  RH  074%=      5-min Rain = 0
KAHS 240819Z 13004KT 18/13 A2984 RMK A01 T01770129  RH  073%=      5-min Rain = 0
KAHS 240820Z 12005KT 18/13 A2984 RMK A01 T01770129  RH  074%=      5-min Rain = 0
KAHS 240821Z 13006KT 18/13 A2984 RMK A01 T01770130  RH  074%=      5-min Rain = 0
KAHS 240822Z 12006KT 18/13 A2984 RMK A01 T01770130  RH  074%=      5-min Rain = 0
KAHS 240823Z 13006KT 18/13 A2984 RMK A01 T01770130  RH  074%=      5-min Rain = 0
KAHS 240824Z 13006KT 18/13 A2984 RMK A01 T01770130  RH  074%=      5-min Rain = 0
KAHS 240825Z 13005KT 18/13 A2984 RMK A01 T01770130  RH  074%=      5-min Rain = 0
KAHS 240826Z 14005KT 18/13 A2984 RMK A01 T01770130  RH  074%=      5-min Rain = 0
KAHS 240827Z 14005KT 18/13 A2984 RMK A01 T01770130  RH  074%=      5-min Rain = 0
KAHS 240828Z 14005KT 18/13 A2984 RMK A01 T01770130  RH  074%=      5-min Rain = 0
KAHS 240829Z 14006KT 18/13 A2984 RMK A01 T01770130  RH  074%=      5-min Rain = 0
KAHS 240830Z 14006KT 18/13 A2984 RMK A01 T01770130  RH  074%=      5-min Rain = 0
KAHS 240831Z 14006KT 18/13 A2984 RMK A01 T01770130  RH  074%=      5-min Rain = 0
KAHS 240832Z 14008KT 18/13 A2984 RMK A01 T01770130  RH  074%=      5-min Rain = 0
KAHS 240833Z 14006KT 18/13 A2984 RMK A01 T01780131  RH  074%=      5-min Rain = 0
KAHS 240834Z 14004KT 18/13 A2984 RMK A01 T01780131  RH  074%=      5-min Rain = 0
KAHS 240835Z 14005KT 18/13 A2984 RMK A01 T01780131  RH  074%=      5-min Rain = 0
KAHS 240836Z 14007KT 18/13 A2984 RMK A01 T01780131  RH  074%=      5-min Rain = 0
KAHS 240837Z 14006KT 18/13 A2984 RMK A01 T01780132  RH  074%=      5-min Rain = 0
KAHS 240838Z 14005KT 18/13 A2984 RMK A01 T01780132  RH  074%=      5-min Rain = 0
KAHS 240839Z 14005KT 18/13 A2984 RMK A01 T01780133  RH  075%=      5-min Rain = 0
KAHS 240840Z 14005KT 18/13 A2984 RMK A01 T01780133  RH  075%=      5-min Rain = 0
KAHS 240841Z 14005KT 18/13 A2984 RMK A01 T01770133  RH  075%=      5-min Rain = 0
KAHS 240842Z 14006KT 18/13 A2984 RMK A01 T01770132  RH  075%=      5-min Rain = 0
KAHS 240843Z 14006KT 18/13 A2984 RMK A01 T01770133  RH  075%=      5-min Rain = 0
KAHS 240844Z 14006KT 18/13 A2984 RMK A01 T01770133  RH  075%=      5-min Rain = 0
KAHS 240845Z 14005KT 18/13 A2984 RMK A01 T01780133  RH  075%=      5-min Rain = 0
KAHS 240846Z 15006KT 18/13 A2984 RMK A01 T01770133  RH  075%=      5-min Rain = 0
KAHS 240847Z 15007KT 18/13 A2984 RMK A01 T01780133  RH  075%=      5-min Rain = 0
KAHS 240848Z 15006KT 18/13 A2984 RMK A01 T01780133  RH  075%=      5-min Rain = 0
KAHS 240849Z 14006KT 18/13 A2984 RMK A01 T01780133  RH  075%=      5-min Rain = 0
KAHS 240850Z 14006KT 18/13 A2984 RMK A01 T01770133  RH  075%=      5-min Rain = 0
KAHS 240851Z 15006KT 18/13 A2984 RMK A01 T01770133  RH  075%=      5-min Rain = 0
KAHS 240852Z 16005KT 18/13 A2984 RMK A01 T01770133  RH  075%=      5-min Rain = 0
KAHS 240853Z 16006KT 18/13 A2984 RMK A01 T01770134  RH  076%=      5-min Rain = 0
KAHS 240854Z 17005KT 18/13 A2984 RMK A01 T01770134  RH  076%=      5-min Rain = 0
KAHS 240855Z 17005KT 18/13 A2984 RMK A01 T01760134  RH  076%=      5-min Rain = 0
KAHS 240856Z 18004KT 18/13 A2984 RMK A01 T01760134  RH  076%=      5-min Rain = 0
KAHS 240857Z 18005KT 18/13 A2984 RMK A01 T01760134  RH  076%=      5-min Rain = 0
KAHS 240858Z 18004KT 18/13 A2984 RMK A01 T01760133  RH  076%=      5-min Rain = 0
KAHS 240859Z 18004KT 18/13 A2984 RMK A01 T01750132  RH  076%=      5-min Rain = 0
KAHS 240900Z 19003KT 18/13 A2984 RMK A01 T01750132  RH  076%=      5-min Rain = 0
KAHS 240901Z 19003KT 18/13 A2984 RMK A01 T01750132  RH  076%=      5-min Rain = 0
KAHS 240902Z 18004KT 17/13 A2984 RMK A01 T01740132  RH  076%=      5-min Rain = 0
KAHS 240903Z 18005KT 18/13 A2984 RMK A01 T01750131  RH  076%=      5-min Rain = 0
KAHS 240904Z 17004KT 18/13 A2984 RMK A01 T01760131  RH  075%=      5-min Rain = 0
KAHS 240905Z 17003KT 18/13 A2984 RMK A01 T01760131  RH  075%=      5-min Rain = 0
KAHS 240906Z 18004KT 18/13 A2984 RMK A01 T01750131  RH  075%=      5-min Rain = 0
KAHS 240907Z 17003KT 17/13 A2984 RMK A01 T01740131  RH  076%=      5-min Rain = 0
KAHS 240908Z 17004KT 17/13 A2984 RMK A01 T01740131  RH  076%=      5-min Rain = 0
KAHS 240909Z 17006KT 17/13 A2984 RMK A01 T01740132  RH  076%=      5-min Rain = 0
KAHS 240910Z 17007KT 17/13 A2984 RMK A01 T01740132  RH  076%=      5-min Rain = 0
KAHS 240911Z 17006KT 17/13 A2984 RMK A01 T01740132  RH  076%=      5-min Rain = 0
KAHS 240912Z 16006KT 17/13 A2984 RMK A01 T01740132  RH  076%=      5-min Rain = 0
KAHS 240913Z 17007KT 17/13 A2984 RMK A01 T01740132  RH  076%=      5-min Rain = 0
KAHS 240914Z 17007KT 18/13 A2984 RMK A01 T01750132  RH  076%=      5-min Rain = 0
KAHS 240915Z 17006KT 18/13 A2984 RMK A01 T01770133  RH  075%=      5-min Rain = 0
KAHS 240916Z 17008KT 18/13 A2985 RMK A01 T01770133  RH  075%=      5-min Rain = 0
KAHS 240917Z 17007KT 18/13 A2984 RMK A01 T01770133  RH  075%=      5-min Rain = 0
KAHS 240918Z 16007KT 18/13 A2984 RMK A01 T01780133  RH  075%=      5-min Rain = 0
KAHS 240919Z 16007KT 18/13 A2984 RMK A01 T01780133  RH  075%=      5-min Rain = 0
KAHS 240920Z 16007KT 18/13 A2984 RMK A01 T01790134  RH  075%=      5-min Rain = 0
KAHS 240921Z 16007KT 18/13 A2984 RMK A01 T01790134  RH  075%=      5-min Rain = 0
KAHS 240922Z 16008KT 18/13 A2984 RMK A01 T01780133  RH  075%=      5-min Rain = 0
KAHS 240923Z 16007KT 18/13 A2985 RMK A01 T01790133  RH  074%=      5-min Rain = 0
KAHS 240924Z 16007KT 18/13 A2985 RMK A01 T01790133  RH  074%=      5-min Rain = 0
KAHS 240925Z 16007KT 18/13 A2985 RMK A01 T01790133  RH  074%=      5-min Rain = 0
KAHS 240926Z 15006KT 18/13 A2985 RMK A01 T01790132  RH  074%=      5-min Rain = 0
KAHS 240927Z 15005KT 18/13 A2985 RMK A01 T01790132  RH  074%=      5-min Rain = 0
KAHS 240928Z 16005KT 18/13 A2985 RMK A01 T01790133  RH  075%=      5-min Rain = 0
KAHS 240929Z 16005KT 18/13 A2984 RMK A01 T01780133  RH  075%=      5-min Rain = 0
KAHS 240930Z 15005KT 18/13 A2984 RMK A01 T01780133  RH  075%=      5-min Rain = 0
KAHS 240931Z 15005KT 18/13 A2985 RMK A01 T01770132  RH  075%=      5-min Rain = 0
KAHS 240932Z 15004KT 18/13 A2985 RMK A01 T01770132  RH  075%=      5-min Rain = 0
KAHS 240933Z 16004KT 18/13 A2985 RMK A01 T01760132  RH  075%=      5-min Rain = 0
KAHS 240934Z 16004KT 18/13 A2984 RMK A01 T01760132  RH  075%=      5-min Rain = 0
KAHS 240935Z 15003KT 18/13 A2984 RMK A01 T01750132  RH  076%=      5-min Rain = 0
KAHS 240936Z 15003KT 18/13 A2984 RMK A01 T01750132  RH  076%=      5-min Rain = 0
KAHS 240937Z 16003KT 17/13 A2984 RMK A01 T01740132  RH  076%=      5-min Rain = 0
KAHS 240938Z 16003KT 17/13 A2984 RMK A01 T01740132  RH  076%=      5-min Rain = 0
KAHS 240939Z 17002KT 17/13 A2984 RMK A01 T01740132  RH  076%=      5-min Rain = 0
KAHS 240940Z 17003KT 17/13 A2984 RMK A01 T01740132  RH  076%=      5-min Rain = 0
KAHS 240941Z 17003KT 17/13 A2984 RMK A01 T01730132  RH  077%=      5-min Rain = 0
KAHS 240942Z 17002KT 17/13 A2984 RMK A01 T01720132  RH  077%=      5-min Rain = 0
KAHS 240943Z 15002KT 17/13 A2984 RMK A01 T01720131  RH  077%=      5-min Rain = 0
KAHS 240944Z 16002KT 17/13 A2984 RMK A01 T01720131  RH  077%=      5-min Rain = 0
KAHS 240945Z 15002KT 17/13 A2984 RMK A01 T01720131  RH  077%=      5-min Rain = 0
KAHS 240946Z 16001KT 17/13 A2984 RMK A01 T01720131  RH  077%=      5-min Rain = 0
KAHS 240947Z 16001KT 17/13 A2984 RMK A01 T01720131  RH  077%=      5-min Rain = 0
KAHS 240948Z 15001KT 17/13 A2984 RMK A01 T01710131  RH  077%=      5-min Rain = 0
KAHS 240949Z 14002KT 17/13 A2984 RMK A01 T01710131  RH  077%=      5-min Rain = 0
KAHS 240950Z 13001KT 17/13 A2984 RMK A01 T01700131  RH  077%=      5-min Rain = 0
KAHS 240951Z 12001KT 17/13 A2984 RMK A01 T01700131  RH  078%=      5-min Rain = 0
KAHS 240952Z 11001KT 17/13 A2984 RMK A01 T01700131  RH  078%=      5-min Rain = 0
KAHS 240953Z 10001KT 17/13 A2984 RMK A01 T01690131  RH  078%=      5-min Rain = 0
KAHS 240954Z 10001KT 17/13 A2984 RMK A01 T01680131  RH  079%=      5-min Rain = 0
KAHS 240955Z 10001KT 17/13 A2984 RMK A01 T01680131  RH  079%=      5-min Rain = 0
KAHS 240956Z 11000KT 17/13 A2984 RMK A01 T01660131  RH  079%=      5-min Rain = 0
KAHS 240957Z 00000KT 17/13 A2984 RMK A01 T01650131  RH  080%=      5-min Rain = 0
KAHS 240958Z 06001KT 16/13 A2984 RMK A01 T01630131  RH  081%=      5-min Rain = 0
KAHS 240959Z 04001KT 16/13 A2984 RMK A01 T01630131  RH  081%=      5-min Rain = 0
KAHS 241000Z 07001KT 16/13 A2984 RMK A01 T01620131  RH  081%=      5-min Rain = 0
KAHS 241001Z 05001KT 16/13 A2984 RMK A01 T01630131  RH  081%=      5-min Rain = 0
KAHS 241002Z 05001KT 16/13 A2984 RMK A01 T01630131  RH  081%=      5-min Rain = 0
KAHS 241003Z 05001KT 16/13 A2984 RMK A01 T01640131  RH  081%=      5-min Rain = 0
KAHS 241004Z 05001KT 16/13 A2984 RMK A01 T01640131  RH  081%=      5-min Rain = 0
KAHS 241005Z 05001KT 16/13 A2984 RMK A01 T01640130  RH  081%=      5-min Rain = 0
KAHS 241006Z 06001KT 16/13 A2984 RMK A01 T01640130  RH  081%=      5-min Rain = 0
KAHS 241007Z 06001KT 16/13 A2984 RMK A01 T01630130  RH  081%=      5-min Rain = 0
KAHS 241008Z 07001KT 16/13 A2983 RMK A01 T01630130  RH  081%=      5-min Rain = 0
KAHS 241009Z 08001KT 16/13 A2983 RMK A01 T01630130  RH  081%=      5-min Rain = 0
KAHS 241010Z 09001KT 16/13 A2984 RMK A01 T01630131  RH  081%=      5-min Rain = 0
KAHS 241011Z 12001KT 16/13 A2984 RMK A01 T01630131  RH  081%=      5-min Rain = 0
KAHS 241012Z 12001KT 16/13 A2984 RMK A01 T01640131  RH  081%=      5-min Rain = 0
KAHS 241013Z 11001KT 17/13 A2983 RMK A01 T01650131  RH  080%=      5-min Rain = 0
KAHS 241014Z 09001KT 17/13 A2983 RMK A01 T01660130  RH  079%=      5-min Rain = 0
KAHS 241015Z 09001KT 17/13 A2983 RMK A01 T01660131  RH  080%=      5-min Rain = 0
KAHS 241016Z 09001KT 17/13 A2983 RMK A01 T01660131  RH  080%=      5-min Rain = 0
KAHS 241017Z 11001KT 17/13 A2984 RMK A01 T01650131  RH  080%=      5-min Rain = 0
KAHS 241018Z 11001KT 17/13 A2983 RMK A01 T01660132  RH  080%=      5-min Rain = 0
KAHS 241019Z 13001KT 17/13 A2983 RMK A01 T01660131  RH  080%=      5-min Rain = 0
KAHS 241020Z 13001KT 17/13 A2983 RMK A01 T01660131  RH  080%=      5-min Rain = 0
KAHS 241021Z 12001KT 17/13 A2983 RMK A01 T01660132  RH  080%=      5-min Rain = 0
KAHS 241022Z 11002KT 17/13 A2983 RMK A01 T01650131  RH  080%=      5-min Rain = 0
KAHS 241023Z 11002KT 16/13 A2983 RMK A01 T01640132  RH  081%=      5-min Rain = 0
KAHS 241024Z 11002KT 16/13 A2983 RMK A01 T01630133  RH  082%=      5-min Rain = 0
KAHS 241025Z 11002KT 16/13 A2983 RMK A01 T01620132  RH  083%=      5-min Rain = 0
KAHS 241026Z 11002KT 16/13 A2983 RMK A01 T01610132  RH  083%=      5-min Rain = 0
KAHS 241027Z 11002KT 16/13 A2983 RMK A01 T01600131  RH  083%=      5-min Rain = 0
KAHS 241028Z 11002KT 16/13 A2983 RMK A01 T01600131  RH  083%=      5-min Rain = 0
KAHS 241029Z 12002KT 16/13 A2983 RMK A01 T01590131  RH  083%=      5-min Rain = 0
KAHS 241030Z 12002KT 16/13 A2984 RMK A01 T01590131  RH  084%=      5-min Rain = 0
KAHS 241031Z 11002KT 16/13 A2983 RMK A01 T01580131  RH  084%=      5-min Rain = 0
KAHS 241032Z 11002KT 16/13 A2983 RMK A01 T01580131  RH  084%=      5-min Rain = 0
KAHS 241033Z 12002KT 16/13 A2984 RMK A01 T01570131  RH  085%=      5-min Rain = 0
KAHS 241034Z 13003KT 16/13 A2984 RMK A01 T01570131  RH  085%=      5-min Rain = 0
KAHS 241035Z 13003KT 16/13 A2984 RMK A01 T01570131  RH  085%=      5-min Rain = 0
KAHS 241036Z 12002KT 16/13 A2984 RMK A01 T01560131  RH  085%=      5-min Rain = 0
KAHS 241037Z 11002KT 16/13 A2984 RMK A01 T01560131  RH  085%=      5-min Rain = 0
KAHS 241038Z 13001KT 16/13 A2984 RMK A01 T01560131  RH  085%=      5-min Rain = 0
KAHS 241039Z 13002KT 16/13 A2983 RMK A01 T01550131  RH  085%=      5-min Rain = 0
KAHS 241040Z 13002KT 15/13 A2983 RMK A01 T01540130  RH  085%=      5-min Rain = 0
KAHS 241041Z 13002KT 15/13 A2984 RMK A01 T01540130  RH  086%=      5-min Rain = 0
KAHS 241042Z 13002KT 15/13 A2984 RMK A01 T01530130  RH  086%=      5-min Rain = 0
KAHS 241043Z 12002KT 15/13 A2983 RMK A01 T01530130  RH  086%=      5-min Rain = 0
KAHS 241044Z 12002KT 15/13 A2984 RMK A01 T01530131  RH  086%=      5-min Rain = 0
KAHS 241045Z 13002KT 15/13 A2984 RMK A01 T01530130  RH  086%=      5-min Rain = 0
KAHS 241046Z 13002KT 15/13 A2983 RMK A01 T01530131  RH  086%=      5-min Rain = 0
KAHS 241047Z 12002KT 15/13 A2983 RMK A01 T01530130  RH  086%=      5-min Rain = 0
KAHS 241048Z 12002KT 15/13 A2983 RMK A01 T01530130  RH  087%=      5-min Rain = 0
KAHS 241049Z 12002KT 15/13 A2983 RMK A01 T01530131  RH  087%=      5-min Rain = 0
KAHS 241050Z 12003KT 15/13 A2983 RMK A01 T01540131  RH  087%=      5-min Rain = 0
KAHS 241051Z 12002KT 15/13 A2983 RMK A01 T01540131  RH  086%=      5-min Rain = 0
KAHS 241052Z 12003KT 15/13 A2983 RMK A01 T01530130  RH  086%=      5-min Rain = 0
KAHS 241053Z 12003KT 15/13 A2983 RMK A01 T01530131  RH  086%=      5-min Rain = 0
KAHS 241054Z 12003KT 15/13 A2983 RMK A01 T01530131  RH  087%=      5-min Rain = 0
KAHS 241055Z 12003KT 15/13 A2983 RMK A01 T01530131  RH  086%=      5-min Rain = 0
KAHS 241056Z 13003KT 15/13 A2983 RMK A01 T01540131  RH  086%=      5-min Rain = 0
KAHS 241057Z 13003KT 15/13 A2983 RMK A01 T01540131  RH  086%=      5-min Rain = 0
KAHS 241058Z 13003KT 15/13 A2983 RMK A01 T01540131  RH  086%=      5-min Rain = 0
KAHS 241059Z 12002KT 15/13 A2983 RMK A01 T01540131  RH  086%=      5-min Rain = 0
KAHS 241100Z 12002KT 15/13 A2984 RMK A01 T01530131  RH  086%=      5-min Rain = 0
KAHS 241101Z 12002KT 15/13 A2984 RMK A01 T01530130  RH  086%=      5-min Rain = 0
KAHS 241102Z 10002KT 15/13 A2984 RMK A01 T01520130  RH  087%=      5-min Rain = 0
KAHS 241103Z 09002KT 15/13 A2984 RMK A01 T01510129  RH  087%=      5-min Rain = 0
KAHS 241104Z 07003KT 15/13 A2984 RMK A01 T01500129  RH  087%=      5-min Rain = 0
KAHS 241105Z 06002KT 15/13 A2984 RMK A01 T01490129  RH  088%=      5-min Rain = 0
KAHS 241106Z 06003KT 15/13 A2984 RMK A01 T01490129  RH  088%=      5-min Rain = 0
KAHS 241107Z 06003KT 15/13 A2984 RMK A01 T01480128  RH  088%=      5-min Rain = 0
KAHS 241108Z 06003KT 15/13 A2984 RMK A01 T01480128  RH  088%=      5-min Rain = 0
KAHS 241109Z 06003KT 15/13 A2984 RMK A01 T01480129  RH  088%=      5-min Rain = 0
KAHS 241110Z 06003KT 15/13 A2984 RMK A01 T01480129  RH  089%=      5-min Rain = 0
KAHS 241111Z 06002KT 15/13 A2984 RMK A01 T01480129  RH  089%=      5-min Rain = 0
KAHS 241112Z 06002KT 15/13 A2984 RMK A01 T01490130  RH  088%=      5-min Rain = 0
KAHS 241113Z 05002KT 15/13 A2984 RMK A01 T01480128  RH  088%=      5-min Rain = 0
KAHS 241114Z 02002KT 15/13 A2984 RMK A01 T01460126  RH  088%=      5-min Rain = 0
KAHS 241115Z 01001KT 14/12 A2984 RMK A01 T01440124  RH  088%=      5-min Rain = 0
KAHS 241116Z 01001KT 14/13 A2984 RMK A01 T01430125  RH  089%=      5-min Rain = 0
KAHS 241117Z 01001KT 14/13 A2984 RMK A01 T01420125  RH  089%=      5-min Rain = 0
KAHS 241118Z 01000KT 14/13 A2984 RMK A01 T01420126  RH  090%=      5-min Rain = 0
KAHS 241119Z 00000KT 14/13 A2984 RMK A01 T01420126  RH  090%=      5-min Rain = 0
KAHS 241120Z 00000KT 14/13 A2984 RMK A01 T01410126  RH  090%=      5-min Rain = 0
KAHS 241121Z 00000KT 14/13 A2984 RMK A01 T01420126  RH  091%=      5-min Rain = 0
KAHS 241122Z 00000KT 14/13 A2984 RMK A01 T01420127  RH  091%=      5-min Rain = 0
KAHS 241123Z 13000KT 14/13 A2984 RMK A01 T01420127  RH  091%=      5-min Rain = 0
KAHS 241124Z 13001KT 14/13 A2984 RMK A01 T01420126  RH  091%=      5-min Rain = 0
KAHS 241125Z 13001KT 14/13 A2984 RMK A01 T01410126  RH  091%=      5-min Rain = 0
KAHS 241126Z 13001KT 14/13 A2984 RMK A01 T01410126  RH  091%=      5-min Rain = 0
KAHS 241127Z 12002KT 14/13 A2984 RMK A01 T01410126  RH  091%=      5-min Rain = 0
KAHS 241128Z 12001KT 14/13 A2984 RMK A01 T01410127  RH  091%=      5-min Rain = 0
KAHS 241129Z 12001KT 14/13 A2984 RMK A01 T01410127  RH  091%=      5-min Rain = 0
KAHS 241130Z 12001KT 14/13 A2985 RMK A01 T01400127  RH  092%=      5-min Rain = 0
KAHS 241131Z 11001KT 14/13 A2985 RMK A01 T01400127  RH  092%=      5-min Rain = 0
KAHS 241132Z 12001KT 14/13 A2985 RMK A01 T01400127  RH  092%=      5-min Rain = 0
KAHS 241133Z 11001KT 14/13 A2985 RMK A01 T01400128  RH  092%=      5-min Rain = 0
KAHS 241134Z 10001KT 14/13 A2985 RMK A01 T01400128  RH  092%=      5-min Rain = 0
KAHS 241135Z 09001KT 14/13 A2985 RMK A01 T01400128  RH  092%=      5-min Rain = 0
KAHS 241136Z 08001KT 14/13 A2985 RMK A01 T01400128  RH  092%=      5-min Rain = 0
KAHS 241137Z 08002KT 14/13 A2985 RMK A01 T01400128  RH  093%=      5-min Rain = 0
KAHS 241138Z 08002KT 14/13 A2985 RMK A01 T01400128  RH  093%=      5-min Rain = 0
KAHS 241139Z 08002KT 14/13 A2985 RMK A01 T01400129  RH  093%=      5-min Rain = 0
KAHS 241140Z 08002KT 14/13 A2985 RMK A01 T01410130  RH  093%=      5-min Rain = 0
KAHS 241141Z 07002KT 14/13 A2985 RMK A01 T01430132  RH  093%=      5-min Rain = 0
KAHS 241142Z 08002KT 14/13 A2985 RMK A01 T01440133  RH  093%=      5-min Rain = 0
KAHS 241143Z 07002KT 15/13 A2985 RMK A01 T01450133  RH  092%=      5-min Rain = 0
KAHS 241144Z 07002KT 15/13 A2985 RMK A01 T01460133  RH  092%=      5-min Rain = 0
KAHS 241145Z 08002KT 15/13 A2985 RMK A01 T01470133  RH  091%=      5-min Rain = 0
KAHS 241146Z 09003KT 15/13 A2985 RMK A01 T01470132  RH  091%=      5-min Rain = 0
KAHS 241147Z 09003KT 15/13 A2985 RMK A01 T01470132  RH  090%=      5-min Rain = 0
KAHS 241148Z 10003KT 15/13 A2985 RMK A01 T01480132  RH  090%=      5-min Rain = 0
KAHS 241149Z 10003KT 15/13 A2985 RMK A01 T01480132  RH  090%=      5-min Rain = 0
KAHS 241150Z 10003KT 15/13 A2985 RMK A01 T01490132  RH  090%=      5-min Rain = 0
KAHS 241151Z 10003KT 15/13 A2985 RMK A01 T01490131  RH  089%=      5-min Rain = 0
KAHS 241152Z 11003KT 15/13 A2985 RMK A01 T01490131  RH  089%=      5-min Rain = 0
KAHS 241153Z 11003KT 15/13 A2985 RMK A01 T01490131  RH  089%=      5-min Rain = 0
KAHS 241154Z 11002KT 15/13 A2985 RMK A01 T01490131  RH  089%=      5-min Rain = 0
KAHS 241155Z 11003KT 15/13 A2985 RMK A01 T01480131  RH  089%=      5-min Rain = 0
KAHS 241156Z 11002KT 15/13 A2985 RMK A01 T01480131  RH  089%=      5-min Rain = 0
KAHS 241157Z 11002KT 15/13 A2985 RMK A01 T01480131  RH  090%=      5-min Rain = 0
KAHS 241158Z 11002KT 15/13 A2985 RMK A01 T01490132  RH  090%=      5-min Rain = 0
KAHS 241159Z 11002KT 15/13 A2985 RMK A01 T01500133  RH  090%=      5-min Rain = 0
KAHS 241200Z 11002KT 15/13 A2985 RMK A01 T01500133  RH  090%=      5-min Rain = 0
KAHS 241201Z 11002KT 15/13 A2985 RMK A01 T01510133  RH  089%=      5-min Rain = 0
KAHS 241202Z 11002KT 15/13 A2985 RMK A01 T01520134  RH  089%=      5-min Rain = 0
KAHS 241203Z 11002KT 15/13 A2985 RMK A01 T01520134  RH  089%=      5-min Rain = 0
KAHS 241204Z 11002KT 15/13 A2985 RMK A01 T01530134  RH  088%=      5-min Rain = 0
KAHS 241205Z 12003KT 15/14 A2985 RMK A01 T01540135  RH  088%=      5-min Rain = 0
KAHS 241206Z 12003KT 16/14 A2985 RMK A01 T01550135  RH  088%=      5-min Rain = 0
KAHS 241207Z 13003KT 16/14 A2985 RMK A01 T01560135  RH  087%=      5-min Rain = 0
KAHS 241208Z 13003KT 16/14 A2985 RMK A01 T01570135  RH  087%=      5-min Rain = 0
KAHS 241209Z 13003KT 16/14 A2985 RMK A01 T01570135  RH  087%=      5-min Rain = 0
KAHS 241210Z 14003KT 16/14 A2985 RMK A01 T01580136  RH  087%=      5-min Rain = 0
KAHS 241211Z 14003KT 16/14 A2985 RMK A01 T01580135  RH  086%=      5-min Rain = 0
KAHS 241212Z 14003KT 16/14 A2985 RMK A01 T01590135  RH  086%=      5-min Rain = 0
KAHS 241213Z 15003KT 16/14 A2985 RMK A01 T01600136  RH  086%=      5-min Rain = 0
KAHS 241214Z 16003KT 16/14 A2985 RMK A01 T01600136  RH  086%=      5-min Rain = 0
KAHS 241215Z 16003KT 16/14 A2985 RMK A01 T01590135  RH  086%=      5-min Rain = 0
KAHS 241216Z 17004KT 16/14 A2985 RMK A01 T01590136  RH  086%=      5-min Rain = 0
KAHS 241217Z 17004KT 16/14 A2985 RMK A01 T01590136  RH  086%=      5-min Rain = 0
KAHS 241218Z 17003KT 16/14 A2985 RMK A01 T01590136  RH  086%=      5-min Rain = 0
KAHS 241219Z 17003KT 16/14 A2985 RMK A01 T01580135  RH  086%=      5-min Rain = 0
KAHS 241220Z 17003KT 16/14 A2985 RMK A01 T01590136  RH  086%=      5-min Rain = 0
KAHS 241221Z 17003KT 16/14 A2985 RMK A01 T01600137  RH  086%=      5-min Rain = 0
KAHS 241222Z 17003KT 16/14 A2985 RMK A01 T01610138  RH  086%=      5-min Rain = 0
KAHS 241223Z 17003KT 16/14 A2985 RMK A01 T01610138  RH  086%=      5-min Rain = 0
KAHS 241224Z 17003KT 16/14 A2985 RMK A01 T01630139  RH  086%=      5-min Rain = 0
KAHS 241225Z 17003KT 16/14 A2985 RMK A01 T01640139  RH  086%=      5-min Rain = 0
KAHS 241226Z 16003KT 17/14 A2985 RMK A01 T01650141  RH  086%=      5-min Rain = 0
KAHS 241227Z 16002KT 17/14 A2985 RMK A01 T01660142  RH  086%=      5-min Rain = 0
KAHS 241228Z 15002KT 17/14 A2985 RMK A01 T01670143  RH  086%=      5-min Rain = 0
KAHS 241229Z 15002KT 17/15 A2985 RMK A01 T01680145  RH  086%=      5-min Rain = 0
KAHS 241230Z 15002KT 17/15 A2985 RMK A01 T01690145  RH  086%=      5-min Rain = 0
KAHS 241231Z 15002KT 17/15 A2985 RMK A01 T01700145  RH  085%=      5-min Rain = 0
KAHS 241232Z 15002KT 17/15 A2985 RMK A01 T01710146  RH  085%=      5-min Rain = 0
KAHS 241233Z 14003KT 17/15 A2985 RMK A01 T01720148  RH  086%=      5-min Rain = 0
KAHS 241234Z 14004KT 17/15 A2985 RMK A01 T01720146  RH  085%=      5-min Rain = 0
KAHS 241235Z 14004KT 17/15 A2985 RMK A01 T01730146  RH  084%=      5-min Rain = 0
KAHS 241236Z 14004KT 17/15 A2985 RMK A01 T01740146  RH  084%=      5-min Rain = 0
KAHS 241237Z 15004KT 17/15 A2986 RMK A01 T01740146  RH  084%=      5-min Rain = 0
KAHS 241238Z 15004KT 18/15 A2986 RMK A01 T01750146  RH  083%=      5-min Rain = 0
KAHS 241239Z 15004KT 18/15 A2986 RMK A01 T01760146  RH  083%=      5-min Rain = 0
KAHS 241240Z 15005KT 18/15 A2985 RMK A01 T01770146  RH  082%=      5-min Rain = 0
KAHS 241241Z 14004KT 18/15 A2985 RMK A01 T01780147  RH  082%=      5-min Rain = 0
KAHS 241242Z 15004KT 18/15 A2986 RMK A01 T01790147  RH  082%=      5-min Rain = 0
KAHS 241243Z 15004KT 18/15 A2986 RMK A01 T01790147  RH  081%=      5-min Rain = 0
KAHS 241244Z 16004KT 18/15 A2986 RMK A01 T01810148  RH  081%=      5-min Rain = 0
KAHS 241245Z 16004KT 18/15 A2986 RMK A01 T01820149  RH  081%=      5-min Rain = 0
KAHS 241246Z 16004KT 18/15 A2986 RMK A01 T01830148  RH  080%=      5-min Rain = 0
KAHS 241247Z 16004KT 19/15 A2986 RMK A01 T01850148  RH  079%=      5-min Rain = 0
KAHS 241248Z 16004KT 19/15 A2986 RMK A01 T01860149  RH  079%=      5-min Rain = 0
KAHS 241249Z 17003KT 19/15 A2986 RMK A01 T01870149  RH  078%=      5-min Rain = 0
KAHS 241250Z 17003KT 19/15 A2986 RMK A01 T01890151  RH  078%=      5-min Rain = 0
KAHS 241251Z 17004KT 19/15 A2986 RMK A01 T01890150  RH  078%=      5-min Rain = 0
KAHS 241252Z 18003KT 19/15 A2986 RMK A01 T01890148  RH  077%=      5-min Rain = 0
KAHS 241253Z 18004KT 19/15 A2986 RMK A01 T01900149  RH  077%=      5-min Rain = 0
KAHS 241254Z 18004KT 19/15 A2986 RMK A01 T01900149  RH  077%=      5-min Rain = 0
KAHS 241255Z 18004KT 19/15 A2986 RMK A01 T01910149  RH  077%=      5-min Rain = 0
KAHS 241256Z 18004KT 19/15 A2986 RMK A01 T01910147  RH  076%=      5-min Rain = 0
KAHS 241257Z 18004KT 19/15 A2986 RMK A01 T01910148  RH  076%=      5-min Rain = 0
KAHS 241258Z 19004KT 19/15 A2986 RMK A01 T01920148  RH  076%=      5-min Rain = 0
KAHS 241259Z 19004KT 19/15 A2986 RMK A01 T01920145  RH  075%=      5-min Rain = 0
KAHS 241300Z 19003KT 19/15 A2986 RMK A01 T01920147  RH  075%=      5-min Rain = 0
KAHS 241301Z 18004KT 19/15 A2986 RMK A01 T01930147  RH  075%=      5-min Rain = 0
KAHS 241302Z 18005KT 19/15 A2986 RMK A01 T01940147  RH  074%=      5-min Rain = 0
KAHS 241303Z 18004KT 19/15 A2986 RMK A01 T01940146  RH  074%=      5-min Rain = 0
KAHS 241304Z 19004KT 20/15 A2986 RMK A01 T01950145  RH  073%=      5-min Rain = 0
KAHS 241305Z 18005KT 20/14 A2986 RMK A01 T01950144  RH  072%=      5-min Rain = 0
KAHS 241306Z 17005KT 20/15 A2986 RMK A01 T01960146  RH  073%=      5-min Rain = 0
KAHS 241307Z 18006KT 20/15 A2985 RMK A01 T01970146  RH  072%=      5-min Rain = 0
KAHS 241308Z 17006KT 20/14 A2985 RMK A01 T01980144  RH  071%=      5-min Rain = 0
KAHS 241309Z 16006KT 20/14 A2985 RMK A01 T01990144  RH  071%=      5-min Rain = 0
KAHS 241310Z 17007KT 20/14 A2985 RMK A01 T02000144  RH  070%=      5-min Rain = 0
KAHS 241311Z 17008KT 20/14 A2985 RMK A01 T02000142  RH  069%=      5-min Rain = 0
KAHS 241312Z 16006KT 20/14 A2985 RMK A01 T02010143  RH  069%=      5-min Rain = 0
KAHS 241313Z 16005KT 20/15 A2985 RMK A01 T02020145  RH  070%=      5-min Rain = 0
KAHS 241314Z 17005KT 20/15 A2985 RMK A01 T02030148  RH  070%=      5-min Rain = 0
KAHS 241315Z 17006KT 20/15 A2985 RMK A01 T02040146  RH  069%=      5-min Rain = 0
KAHS 241316Z 17006KT 20/15 A2985 RMK A01 T02040145  RH  069%=      5-min Rain = 0
KAHS 241317Z 17005KT 20/14 A2985 RMK A01 T02030144  RH  069%=      5-min Rain = 0
KAHS 241318Z 17006KT 20/14 A2985 RMK A01 T02030143  RH  068%=      5-min Rain = 0
KAHS 241319Z 16005KT 20/15 A2985 RMK A01 T02030146  RH  069%=      5-min Rain = 0
KAHS 241320Z 16005KT 21/15 A2985 RMK A01 T02050148  RH  070%=      5-min Rain = 0
KAHS 241321Z 17006KT 21/15 A2985 RMK A01 T02050146  RH  069%=      5-min Rain = 0
KAHS 241322Z 16007KT 21/15 A2985 RMK A01 T02060147  RH  069%=      5-min Rain = 0
KAHS 241323Z 17006KT 21/15 A2985 RMK A01 T02060145  RH  068%=      5-min Rain = 0
KAHS 241324Z 16007KT 21/15 A2985 RMK A01 T02070147  RH  068%=      5-min Rain = 0
KAHS 241325Z 17007KT 21/15 A2985 RMK A01 T02070146  RH  068%=      5-min Rain = 0
KAHS 241326Z 16007KT 21/15 A2985 RMK A01 T02080148  RH  068%=      5-min Rain = 0
KAHS 241327Z 18008KT 21/15 A2985 RMK A01 T02090149  RH  069%=      5-min Rain = 0
KAHS 241328Z 18007KT 21/15 A2985 RMK A01 T02090147  RH  067%=      5-min Rain = 0
KAHS 241329Z 19008KT 21/15 A2985 RMK A01 T02100148  RH  068%=      5-min Rain = 0
KAHS 241330Z 17007KT 21/15 A2985 RMK A01 T02110148  RH  067%=      5-min Rain = 0
KAHS 241331Z 18009KT 21/15 A2985 RMK A01 T02130147  RH  066%=      5-min Rain = 0
KAHS 241332Z 19009KT 21/15 A2985 RMK A01 T02130147  RH  066%=      5-min Rain = 0
KAHS 241333Z 18006KT 21/15 A2985 RMK A01 T02140147  RH  066%=      5-min Rain = 0
KAHS 241334Z 18009KT 22/15 A2985 RMK A01 T02150148  RH  066%=      5-min Rain = 0
KAHS 241335Z 19008KT 22/15 A2985 RMK A01 T02150147  RH  065%=      5-min Rain = 0
KAHS 241336Z 19009KT 22/15 A2985 RMK A01 T02160147  RH  065%=      5-min Rain = 0
KAHS 241337Z 20008KT 22/15 A2985 RMK A01 T02160146  RH  064%=      5-min Rain = 0
KAHS 241338Z 18007KT 22/15 A2985 RMK A01 T02170149  RH  065%=      5-min Rain = 0
KAHS 241339Z 19006KT 22/15 A2985 RMK A01 T02180147  RH  064%=      5-min Rain = 0
KAHS 241340Z 20007KT 22/15 A2985 RMK A01 T02190149  RH  065%=      5-min Rain = 0
KAHS 241341Z 20007KT 22/15 A2985 RMK A01 T02190147  RH  064%=      5-min Rain = 0
KAHS 241342Z 20007KT 22/15 A2985 RMK A01 T02190147  RH  063%=      5-min Rain = 0
KAHS 241343Z 20006KT 22/15 A2985 RMK A01 T02190148  RH  064%=      5-min Rain = 0
KAHS 241344Z 19006KT 22/15 A2985 RMK A01 T02200146  RH  063%=      5-min Rain = 0
KAHS 241345Z 21008KT 22/15 A2985 RMK A01 T02200147  RH  063%=      5-min Rain = 0
KAHS 241346Z 19005KT 22/15 A2984 RMK A01 T02210149  RH  064%=      5-min Rain = 0
KAHS 241347Z 20009KT 22/15 A2984 RMK A01 T02220150  RH  064%=      5-min Rain = 0
KAHS 241348Z 20007KT 22/15 A2984 RMK A01 T02220149  RH  063%=      5-min Rain = 0
KAHS 241349Z 19008KT 22/15 A2984 RMK A01 T02220151  RH  064%=      5-min Rain = 0
KAHS 241350Z 18005KT 22/15 A2984 RMK A01 T02230151  RH  064%=      5-min Rain = 0
KAHS 241351Z 20005KT 22/15 A2984 RMK A01 T02240153  RH  064%=      5-min Rain = 0
KAHS 241352Z 19004KT 23/15 A2984 RMK A01 T02250152  RH  064%=      5-min Rain = 0
KAHS 241353Z 19005KT 23/15 A2984 RMK A01 T02260154  RH  064%=      5-min Rain = 0
KAHS 241354Z 19008KT 23/16 A2985 RMK A01 T02260155  RH  064%=      5-min Rain = 0
KAHS 241355Z 21009KT 23/16 A2985 RMK A01 T02260155  RH  064%=      5-min Rain = 0
KAHS 241356Z 20006KT 23/16 A2985 RMK A01 T02270156  RH  064%=      5-min Rain = 0
KAHS 241357Z 19007KT 23/16 A2985 RMK A01 T02270158  RH  065%=      5-min Rain = 0
KAHS 241358Z 19005KT 23/16 A2985 RMK A01 T02280157  RH  064%=      5-min Rain = 0
KAHS 241359Z 19005KT 23/16 A2985 RMK A01 T02290158  RH  064%=      5-min Rain = 0
KAHS 241400Z 19006KT 23/16 A2985 RMK A01 T02300160  RH  065%=      5-min Rain = 0
KAHS 241401Z 19006KT 23/16 A2985 RMK A01 T02310159  RH  064%=      5-min Rain = 0
KAHS 241402Z 19008KT 23/16 A2985 RMK A01 T02310160  RH  064%=      5-min Rain = 0
KAHS 241403Z 21006KT 23/16 A2985 RMK A01 T02310158  RH  063%=      5-min Rain = 0
KAHS 241404Z 20005KT 23/16 A2985 RMK A01 T02310158  RH  064%=      5-min Rain = 0
KAHS 241405Z 19005KT 23/16 A2985 RMK A01 T02320158  RH  063%=      5-min Rain = 0
KAHS 241406Z 19005KT 23/16 A2985 RMK A01 T02320158  RH  063%=      5-min Rain = 0
KAHS 241407Z 19006KT 23/16 A2985 RMK A01 T02320156  RH  062%=      5-min Rain = 0
KAHS 241408Z 19006KT 23/16 A2985 RMK A01 T02330160  RH  063%=      5-min Rain = 0
KAHS 241409Z 22005KT 23/16 A2985 RMK A01 T02330159  RH  063%=      5-min Rain = 0
KAHS 241410Z 20005KT 23/16 A2985 RMK A01 T02330160  RH  063%=      5-min Rain = 0
KAHS 241411Z 19010KT 23/16 A2985 RMK A01 T02340161  RH  063%=      5-min Rain = 0
KAHS 241412Z 18011KT 23/16 A2985 RMK A01 T02330157  RH  062%=      5-min Rain = 0
KAHS 241413Z 18011KT 23/16 A2985 RMK A01 T02320159  RH  063%=      5-min Rain = 0
KAHS 241414Z 19008KT 23/16 A2985 RMK A01 T02320160  RH  064%=      5-min Rain = 0
KAHS 241415Z 19007KT 23/16 A2985 RMK A01 T02340163  RH  064%=      5-min Rain = 0
KAHS 241416Z 20007KT 23/16 A2985 RMK A01 T02340161  RH  064%=      5-min Rain = 0
KAHS 241417Z 19008KT 24/16 A2985 RMK A01 T02350162  RH  064%=      5-min Rain = 0
KAHS 241418Z 18013KT 23/16 A2985 RMK A01 T02340159  RH  063%=      5-min Rain = 0
KAHS 241419Z 19013KT 23/16 A2985 RMK A01 T02330158  RH  063%=      5-min Rain = 0
KAHS 241420Z 20011KT 23/16 A2985 RMK A01 T02330158  RH  063%=      5-min Rain = 0
KAHS 241421Z 19012KT 23/16 A2985 RMK A01 T02330159  RH  063%=      5-min Rain = 0
KAHS 241422Z 19010G15KT 23/16 A2985 RMK A01 T02330160  RH  063%=      5-min Rain = 0
KAHS 241423Z 19013KT 23/16 A2985 RMK A01 T02340160  RH  063%=      5-min Rain = 0
KAHS 241424Z 19013KT 23/16 A2985 RMK A01 T02340157  RH  062%=      5-min Rain = 0
KAHS 241425Z 19016KT 23/16 A2984 RMK A01 T02340156  RH  062%=      5-min Rain = 0
KAHS 241426Z 19014KT 23/15 A2984 RMK A01 T02320154  RH  061%=      5-min Rain = 0
KAHS 241427Z 18011G18KT 23/16 A2985 RMK A01 T02330158  RH  063%=      5-min Rain = 0
KAHS 241428Z 18012KT 23/16 A2985 RMK A01 T02340158  RH  062%=      5-min Rain = 0
KAHS 241429Z 18013G18KT 23/16 A2984 RMK A01 T02330156  RH  062%=      5-min Rain = 0
KAHS 241430Z 19015KT 23/16 A2984 RMK A01 T02330156  RH  062%=      5-min Rain = 0
KAHS 241431Z 19015KT 23/16 A2984 RMK A01 T02330155  RH  062%=      5-min Rain = 0
KAHS 241432Z 19012KT 23/16 A2985 RMK A01 T02330156  RH  062%=      5-min Rain = 0
KAHS 241433Z 19012KT 23/16 A2984 RMK A01 T02330156  RH  062%=      5-min Rain = 0
KAHS 241434Z 18015KT 23/16 A2984 RMK A01 T02330156  RH  062%=      5-min Rain = 0
KAHS 241435Z 19014KT 23/16 A2985 RMK A01 T02330157  RH  062%=      5-min Rain = 0
KAHS 241436Z 19013KT 23/16 A2984 RMK A01 T02330157  RH  062%=      5-min Rain = 0
KAHS 241437Z 18014KT 23/16 A2985 RMK A01 T02330155  RH  062%=      5-min Rain = 0
KAHS 241438Z 19011KT 23/16 A2984 RMK A01 T02330156  RH  062%=      5-min Rain = 0
KAHS 241439Z 19012KT 23/16 A2984 RMK A01 T02340157  RH  062%=      5-min Rain = 0
KAHS 241440Z 19010KT 23/16 A2984 RMK A01 T02340158  RH  062%=      5-min Rain = 0
KAHS 241441Z 19008KT 24/16 A2984 RMK A01 T02350158  RH  062%=      5-min Rain = 0
KAHS 241442Z 19008G14KT 24/16 A2984 RMK A01 T02370161  RH  063%=      5-min Rain = 0
KAHS 241443Z 21012KT 24/16 A2984 RMK A01 T02380161  RH  062%=      5-min Rain = 0
KAHS 241444Z 20013KT 24/16 A2984 RMK A01 T02370158  RH  061%=      5-min Rain = 0
KAHS 241445Z 20010G15KT 24/16 A2984 RMK A01 T02370159  RH  062%=      5-min Rain = 0
KAHS 241446Z 20015KT 24/16 A2984 RMK A01 T02370157  RH  061%=      5-min Rain = 0
KAHS 241447Z 20012G17KT 24/16 A2984 RMK A01 T02360157  RH  061%=      5-min Rain = 0
KAHS 241448Z 19013KT 24/16 A2984 RMK A01 T02360156  RH  061%=      5-min Rain = 0
KAHS 241449Z 20012KT 24/16 A2984 RMK A01 T02360158  RH  061%=      5-min Rain = 0
KAHS 241450Z 19012G17KT 24/16 A2984 RMK A01 T02380161  RH  062%=      5-min Rain = 0
KAHS 241451Z 19015KT 24/16 A2984 RMK A01 T02390160  RH  061%=      5-min Rain = 0
KAHS 241452Z 19012G18KT 24/16 A2984 RMK A01 T02390159  RH  061%=      5-min Rain = 0
KAHS 241453Z 19011KT 24/16 A2984 RMK A01 T02390159  RH  061%=      5-min Rain = 0
KAHS 241454Z 20013KT 24/16 A2984 RMK A01 T02390160  RH  061%=      5-min Rain = 0
KAHS 241455Z 20014KT 24/16 A2984 RMK A01 T02400160  RH  061%=      5-min Rain = 0
KAHS 241456Z 20010KT 24/16 A2984 RMK A01 T02390160  RH  061%=      5-min Rain = 0
KAHS 241457Z 19013KT 24/16 A2984 RMK A01 T02400160  RH  061%=      5-min Rain = 0
KAHS 241458Z 20009KT 24/16 A2984 RMK A01 T02390159  RH  061%=      5-min Rain = 0
KAHS 241459Z 19012KT 24/16 A2984 RMK A01 T02410163  RH  062%=      5-min Rain = 0
KAHS 241500Z 19015KT 24/16 A2984 RMK A01 T02410161  RH  061%=      5-min Rain = 0
KAHS 241501Z 18015G20KT 24/16 A2984 RMK A01 T02410160  RH  061%=      5-min Rain = 0
KAHS 241502Z 19013G18KT 24/16 A2984 RMK A01 T02410163  RH  062%=      5-min Rain = 0
KAHS 241503Z 19014G19KT 24/16 A2984 RMK A01 T02420163  RH  061%=      5-min Rain = 0
KAHS 241504Z 18013KT 24/16 A2984 RMK A01 T02430164  RH  061%=      5-min Rain = 0
KAHS 241505Z 19013KT 24/16 A2984 RMK A01 T02430162  RH  061%=      5-min Rain = 0
KAHS 241506Z 19013G19KT 24/16 A2984 RMK A01 T02430164  RH  061%=      5-min Rain = 0
KAHS 241507Z 20015KT 24/16 A2984 RMK A01 T02430163  RH  061%=      5-min Rain = 0
KAHS 241508Z 19016KT 24/16 A2984 RMK A01 T02420161  RH  060%=      5-min Rain = 0
KAHS 241509Z 19012KT 24/16 A2984 RMK A01 T02420164  RH  062%=      5-min Rain = 0
KAHS 241510Z 19014KT 24/17 A2984 RMK A01 T02440165  RH  061%=      5-min Rain = 0
KAHS 241511Z 19013KT 24/17 A2984 RMK A01 T02440165  RH  061%=      5-min Rain = 0
KAHS 241512Z 19014KT 25/17 A2984 RMK A01 T02450165  RH  061%=      5-min Rain = 0
KAHS 241513Z 18012G17KT 25/16 A2984 RMK A01 T02450164  RH  061%=      5-min Rain = 0
KAHS 241514Z 21010KT 25/17 A2984 RMK A01 T02470170  RH  062%=      5-min Rain = 0
KAHS 241515Z 20013G22KT 25/17 A2984 RMK A01 T02480167  RH  061%=      5-min Rain = 0
KAHS 241516Z 20014G21KT 25/16 A2984 RMK A01 T02460164  RH  060%=      5-min Rain = 0
KAHS 241517Z 19011G17KT 25/17 A2984 RMK A01 T02460166  RH  061%=      5-min Rain = 0
KAHS 241518Z 19016KT 25/17 A2984 RMK A01 T02470166  RH  061%=      5-min Rain = 0
KAHS 241519Z 19015KT 25/17 A2984 RMK A01 T02470167  RH  061%=      5-min Rain = 0
KAHS 241520Z 19015KT 25/17 A2984 RMK A01 T02470167  RH  061%=      5-min Rain = 0
KAHS 241521Z 19016KT 25/16 A2984 RMK A01 T02470164  RH  060%=      5-min Rain = 0
KAHS 241522Z 19015KT 25/17 A2984 RMK A01 T02460165  RH  061%=      5-min Rain = 0
KAHS 241523Z 19013KT 25/17 A2984 RMK A01 T02470166  RH  061%=      5-min Rain = 0
KAHS 241524Z 19014KT 25/17 A2983 RMK A01 T02480167  RH  061%=      5-min Rain = 0
KAHS 241525Z 19015G21KT 25/17 A2983 RMK A01 T02470166  RH  060%=      5-min Rain = 0
KAHS 241526Z 19015KT 25/17 A2984 RMK A01 T02470166  RH  060%=      5-min Rain = 0
KAHS 241527Z 18015KT 25/17 A2983 RMK A01 T02470166  RH  061%=      5-min Rain = 0
KAHS 241528Z 19014KT 25/17 A2983 RMK A01 T02480168  RH  061%=      5-min Rain = 0
KAHS 241529Z 19016KT 25/17 A2983 RMK A01 T02500168  RH  061%=      5-min Rain = 0
KAHS 241530Z 18014KT 25/17 A2983 RMK A01 T02500168  RH  060%=      5-min Rain = 0
KAHS 241531Z 18013G18KT 25/17 A2983 RMK A01 T02510169  RH  060%=      5-min Rain = 0
KAHS 241532Z 18012G18KT 25/17 A2983 RMK A01 T02510169  RH  060%=      5-min Rain = 0
KAHS 241533Z 19014KT 25/17 A2983 RMK A01 T02520169  RH  060%=      5-min Rain = 0
KAHS 241534Z 19012KT 25/17 A2983 RMK A01 T02510168  RH  060%=      5-min Rain = 0
KAHS 241535Z 18015KT 25/17 A2983 RMK A01 T02510167  RH  060%=      5-min Rain = 0
KAHS 241536Z 18012KT 25/17 A2983 RMK A01 T02500168  RH  060%=      5-min Rain = 0
KAHS 241537Z 20012KT 25/17 A2983 RMK A01 T02520169  RH  060%=      5-min Rain = 0
KAHS 241538Z 19010KT 25/17 A2983 RMK A01 T02520170  RH  060%=      5-min Rain = 0
KAHS 241539Z 18009KT 26/18 A2983 RMK A01 T02550175  RH  061%=      5-min Rain = 0
KAHS 241540Z 19010KT 26/17 A2983 RMK A01 T02570174  RH  060%=      5-min Rain = 0
KAHS 241541Z 18011G17KT 26/18 A2983 RMK A01 T02580175  RH  060%=      5-min Rain = 0
KAHS 241542Z 19016KT 26/17 A2983 RMK A01 T02580171  RH  059%=      5-min Rain = 0
KAHS 241543Z 19013G18KT 26/17 A2983 RMK A01 T02560171  RH  059%=      5-min Rain = 0
KAHS 241544Z 19015KT 26/17 A2983 RMK A01 T02560170  RH  059%=      5-min Rain = 0
KAHS 241545Z 18013G19KT 26/17 A2983 RMK A01 T02560170  RH  059%=      5-min Rain = 0
KAHS 241546Z 18015KT 26/17 A2983 RMK A01 T02560170  RH  059%=      5-min Rain = 0
KAHS 241547Z 18014G19KT 26/17 A2983 RMK A01 T02560170  RH  059%=      5-min Rain = 0
KAHS 241548Z 19010G16KT 26/18 A2983 RMK A01 T02580176  RH  060%=      5-min Rain = 0
KAHS 241549Z 19012KT 26/17 A2983 RMK A01 T02590172  RH  059%=      5-min Rain = 0
KAHS 241550Z 17011KT 26/18 A2983 RMK A01 T02600176  RH  060%=      5-min Rain = 0
KAHS 241551Z 17013KT 26/17 A2983 RMK A01 T02620174  RH  058%=      5-min Rain = 0
KAHS 241552Z 18012KT 26/17 A2983 RMK A01 T02620170  RH  057%=      5-min Rain = 0
KAHS 241553Z 18010KT 26/17 A2983 RMK A01 T02610173  RH  058%=      5-min Rain = 0
KAHS 241554Z 18009KT 26/17 A2983 RMK A01 T02620173  RH  058%=      5-min Rain = 0
KAHS 241555Z 17013KT 26/17 A2983 RMK A01 T02620174  RH  058%=      5-min Rain = 0
KAHS 241556Z 17013KT 26/17 A2983 RMK A01 T02620172  RH  057%=      5-min Rain = 0
KAHS 241557Z 18014KT 26/17 A2983 RMK A01 T02630173  RH  058%=      5-min Rain = 0
KAHS 241558Z 17011KT 26/17 A2983 RMK A01 T02630174  RH  058%=      5-min Rain = 0
KAHS 241559Z 17014KT 27/18 A2983 RMK A01 T02650175  RH  058%=      5-min Rain = 0
KAHS 241600Z 18012KT 27/18 A2983 RMK A01 T02670176  RH  058%=      5-min Rain = 0
KAHS 241601Z 18010KT 27/18 A2983 RMK A01 T02670176  RH  057%=      5-min Rain = 0
KAHS 241602Z 18013KT 27/17 A2983 RMK A01 T02670174  RH  057%=      5-min Rain = 0
KAHS 241603Z 18012KT 27/17 A2983 RMK A01 T02650173  RH  057%=      5-min Rain = 0
KAHS 241604Z 19010KT 27/18 A2983 RMK A01 T02670177  RH  058%=      5-min Rain = 0
KAHS 241605Z 21014KT 27/17 A2983 RMK A01 T02670174  RH  057%=      5-min Rain = 0
KAHS 241606Z 19009KT 26/17 A2983 RMK A01 T02640173  RH  057%=      5-min Rain = 0
KAHS 241607Z 20008KT 27/18 A2983 RMK A01 T02660177  RH  058%=      5-min Rain = 0
KAHS 241608Z 20009KT 27/18 A2983 RMK A01 T02670176  RH  057%=      5-min Rain = 0
KAHS 241609Z 20011KT 27/18 A2983 RMK A01 T02680177  RH  057%=      5-min Rain = 0
KAHS 241610Z 18010KT 27/18 A2983 RMK A01 T02690178  RH  058%=      5-min Rain = 0
KAHS 241611Z 19009KT 27/18 A2983 RMK A01 T02690179  RH  058%=      5-min Rain = 0
KAHS 241612Z 19010KT 27/18 A2983 RMK A01 T02700179  RH  057%=      5-min Rain = 0
KAHS 241613Z 19011KT 27/18 A2983 RMK A01 T02690177  RH  057%=      5-min Rain = 0
KAHS 241614Z 20010KT 27/18 A2983 RMK A01 T02690177  RH  057%=      5-min Rain = 0
KAHS 241615Z 21010KT 27/18 A2983 RMK A01 T02700180  RH  058%=      5-min Rain = 0
KAHS 241616Z 20011G16KT 27/18 A2983 RMK A01 T02710179  RH  057%=      5-min Rain = 0
KAHS 241617Z 19014KT 27/18 A2983 RMK A01 T02720180  RH  057%=      5-min Rain = 0
KAHS 241618Z 19014KT 27/18 A2983 RMK A01 T02700175  RH  056%=      5-min Rain = 0
KAHS 241619Z 18011KT 27/18 A2983 RMK A01 T02680176  RH  057%=      5-min Rain = 0
KAHS 241620Z 20009G14KT 27/18 A2983 RMK A01 T02690178  RH  058%=      5-min Rain = 0
KAHS 241621Z 21012KT 27/18 A2983 RMK A01 T02690180  RH  058%=      5-min Rain = 0
KAHS 241622Z 21014KT 27/18 A2983 RMK A01 T02670178  RH  058%=      5-min Rain = 0
KAHS 241623Z 22015G21KT 26/18 A2983 RMK A01 T02620175  RH  059%=      5-min Rain = 0
KAHS 241624Z 22012KT 26/18 A2983 RMK A01 T02610176  RH  060%=      5-min Rain = 0
KAHS 241625Z 22013G20KT 26/18 A2983 RMK A01 T02630178  RH  060%=      5-min Rain = 0
KAHS 241626Z 21015KT 26/18 A2983 RMK A01 T02640177  RH  058%=      5-min Rain = 0
KAHS 241627Z 19014KT 27/18 A2983 RMK A01 T02660177  RH  058%=      5-min Rain = 0
KAHS 241628Z 19014KT 27/18 A2983 RMK A01 T02650178  RH  059%=      5-min Rain = 0
KAHS 241629Z 19014G21KT 26/18 A2983 RMK A01 T02640177  RH  059%=      5-min Rain = 0
KAHS 241630Z 20015KT 26/18 A2983 RMK A01 T02640178  RH  059%=      5-min Rain = 0
KAHS 241631Z 20012KT 27/18 A2983 RMK A01 T02670180  RH  059%=      5-min Rain = 0
KAHS 241632Z 19012G17KT 27/18 A2983 RMK A01 T02700182  RH  059%=      5-min Rain = 0
KAHS 241633Z 20017G22KT 27/18 A2983 RMK A01 T02700180  RH  058%=      5-min Rain = 0
KAHS 241634Z 20015G21KT 27/18 A2983 RMK A01 T02700180  RH  058%=      5-min Rain = 0
KAHS 241635Z 20015KT 27/18 A2983 RMK A01 T02690179  RH  058%=      5-min Rain = 0
KAHS 241636Z 22012KT 27/18 A2983 RMK A01 T02680179  RH  058%=      5-min Rain = 0
KAHS 241637Z 21014G20KT 27/18 A2983 RMK A01 T02680180  RH  059%=      5-min Rain = 0
KAHS 241638Z 20016KT 27/18 A2983 RMK A01 T02680179  RH  058%=      5-min Rain = 0
KAHS 241639Z 20013G19KT 27/18 A2983 RMK A01 T02680179  RH  058%=      5-min Rain = 0
KAHS 241640Z 20015KT 27/18 A2983 RMK A01 T02700180  RH  058%=      5-min Rain = 0
KAHS 241641Z 20017G23KT 27/18 A2983 RMK A01 T02690179  RH  058%=      5-min Rain = 0
KAHS 241642Z 20016KT 27/18 A2983 RMK A01 T02680178  RH  058%=      5-min Rain = 0
KAHS 241643Z 20017KT 27/18 A2983 RMK A01 T02680178  RH  058%=      5-min Rain = 0
KAHS 241644Z 21015KT 27/18 A2983 RMK A01 T02700180  RH  058%=      5-min Rain = 0
KAHS 241645Z 21013KT 27/18 A2983 RMK A01 T02700180  RH  058%=      5-min Rain = 0
KAHS 241646Z 20015KT 27/18 A2983 RMK A01 T02720182  RH  058%=      5-min Rain = 0
KAHS 241647Z 19016KT 27/18 A2983 RMK A01 T02720179  RH  057%=      5-min Rain = 0
KAHS 241648Z 19015KT 27/18 A2983 RMK A01 T02720180  RH  057%=      5-min Rain = 0
KAHS 241649Z 20011KT 27/18 A2983 RMK A01 T02710181  RH  058%=      5-min Rain = 0
KAHS 241650Z 20010KT 27/19 A2983 RMK A01 T02740185  RH  058%=      5-min Rain = 0
KAHS 241651Z 18014KT 28/18 A2983 RMK A01 T02760184  RH  057%=      5-min Rain = 0
KAHS 241652Z 19013KT 28/18 A2983 RMK A01 T02760182  RH  056%=      5-min Rain = 0
KAHS 241653Z 18015KT 28/18 A2983 RMK A01 T02760182  RH  056%=      5-min Rain = 0
KAHS 241654Z 19013KT 27/18 A2983 RMK A01 T02740179  RH  056%=      5-min Rain = 0
KAHS 241655Z 19012KT 27/18 A2983 RMK A01 T02710179  RH  057%=      5-min Rain = 0
KAHS 241656Z 19014KT 27/18 A2983 RMK A01 T02710181  RH  058%=      5-min Rain = 0
KAHS 241657Z 20015KT 27/18 A2983 RMK A01 T02720179  RH  057%=      5-min Rain = 0
KAHS 241658Z 20015G20KT 27/18 A2982 RMK A01 T02700178  RH  057%=      5-min Rain = 0
KAHS 241659Z 20015KT 27/18 A2982 RMK A01 T02700179  RH  058%=      5-min Rain = 0
KAHS 241700Z 20015KT 27/18 A2982 RMK A01 T02720181  RH  057%=      5-min Rain = 0
KAHS 241701Z 20013G19KT 27/18 A2982 RMK A01 T02720179  RH  057%=      5-min Rain = 0
KAHS 241702Z 19014KT 27/18 A2982 RMK A01 T02710180  RH  057%=      5-min Rain = 0
KAHS 241703Z 20013G18KT 27/18 A2982 RMK A01 T02730183  RH  058%=      5-min Rain = 0
KAHS 241704Z 18014KT 27/18 A2982 RMK A01 T02730183  RH  058%=      5-min Rain = 0
KAHS 241705Z 18012G19KT 27/18 A2982 RMK A01 T02730183  RH  058%=      5-min Rain = 0
KAHS 241706Z 19013G18KT 27/18 A2982 RMK A01 T02740182  RH  057%=      5-min Rain = 0
KAHS 241707Z 18009G15KT 28/19 A2982 RMK A01 T02750185  RH  058%=      5-min Rain = 0
KAHS 241708Z 18012KT 28/18 A2982 RMK A01 T02750183  RH  057%=      5-min Rain = 0
KAHS 241709Z 17016KT 28/18 A2982 RMK A01 T02750183  RH  057%=      5-min Rain = 0
KAHS 241710Z 18012KT 28/18 A2982 RMK A01 T02760184  RH  057%=      5-min Rain = 0
KAHS 241711Z 20013KT 28/18 A2982 RMK A01 T02770184  RH  057%=      5-min Rain = 0
KAHS 241712Z 19012KT 28/18 A2982 RMK A01 T02750181  RH  057%=      5-min Rain = 0
KAHS 241713Z 18013KT 28/19 A2982 RMK A01 T02760185  RH  058%=      5-min Rain = 0
KAHS 241714Z 18014KT 28/18 A2982 RMK A01 T02770183  RH  057%=      5-min Rain = 0
KAHS 241715Z 18013G19KT 28/18 A2982 RMK A01 T02750181  RH  056%=      5-min Rain = 0
KAHS 241716Z 18017KT 27/18 A2982 RMK A01 T02740180  RH  056%=      5-min Rain = 0
KAHS 241717Z 19014G21KT 27/18 A2982 RMK A01 T02740182  RH  057%=      5-min Rain = 0
KAHS 241718Z 19015KT 28/18 A2982 RMK A01 T02760183  RH  057%=      5-min Rain = 0
KAHS 241719Z 20015KT 28/18 A2982 RMK A01 T02750180  RH  056%=      5-min Rain = 0
KAHS 241720Z 20015G20KT 27/18 A2982 RMK A01 T02740181  RH  057%=      5-min Rain = 0
KAHS 241721Z 19013KT 27/18 A2982 RMK A01 T02730180  RH  057%=      5-min Rain = 0
KAHS 241722Z 19015KT 27/18 A2982 RMK A01 T02740181  RH  057%=      5-min Rain = 0
KAHS 241723Z 17014KT 28/18 A2982 RMK A01 T02750179  RH  056%=      5-min Rain = 0
KAHS 241724Z 19010G15KT 28/18 A2982 RMK A01 T02760182  RH  056%=      5-min Rain = 0
KAHS 241725Z 19014KT 28/18 A2982 RMK A01 T02790183  RH  056%=      5-min Rain = 0
KAHS 241726Z 18013KT 28/18 A2982 RMK A01 T02790180  RH  055%=      5-min Rain = 0
KAHS 241727Z 18013G18KT 28/18 A2982 RMK A01 T02780180  RH  055%=      5-min Rain = 0
KAHS 241728Z 19018G24KT 28/18 A2981 RMK A01 T02750178  RH  055%=      5-min Rain = 0
KAHS 241729Z 19012KT 28/18 A2981 RMK A01 T02750182  RH  057%=      5-min Rain = 0
KAHS 241730Z 18015KT 28/18 A2981 RMK A01 T02760182  RH  057%=      5-min Rain = 0
KAHS 241731Z 17017KT 28/18 A2981 RMK A01 T02770182  RH  056%=      5-min Rain = 0
KAHS 241732Z 17013G18KT 28/18 A2981 RMK A01 T02770181  RH  056%=      5-min Rain = 0
KAHS 241733Z 18012KT 28/18 A2981 RMK A01 T02770182  RH  056%=      5-min Rain = 0
KAHS 241734Z 19009KT 28/19 A2981 RMK A01 T02800186  RH  057%=      5-min Rain = 0
KAHS 241735Z 18010G16KT 28/19 A2981 RMK A01 T02830186  RH  056%=      5-min Rain = 0
KAHS 241736Z 20013KT 28/18 A2981 RMK A01 T02820183  RH  055%=      5-min Rain = 0
KAHS 241737Z 19012G17KT 28/18 A2981 RMK A01 T02810181  RH  055%=      5-min Rain = 0
KAHS 241738Z 19014KT 28/18 A2981 RMK A01 T02790181  RH  055%=      5-min Rain = 0
KAHS 241739Z 19013KT 28/18 A2981 RMK A01 T02780182  RH  056%=      5-min Rain = 0
KAHS 241740Z 20013G19KT 28/18 A2981 RMK A01 T02790182  RH  056%=      5-min Rain = 0
KAHS 241741Z 19014G20KT 28/18 A2981 RMK A01 T02810183  RH  055%=      5-min Rain = 0
KAHS 241742Z 20015G20KT 28/18 A2981 RMK A01 T02790180  RH  055%=      5-min Rain = 0
KAHS 241743Z 19017KT 28/18 A2981 RMK A01 T02790180  RH  055%=      5-min Rain = 0
KAHS 241744Z 19013KT 28/18 A2981 RMK A01 T02790180  RH  055%=      5-min Rain = 0
KAHS 241745Z 20016KT 28/18 A2981 RMK A01 T02800181  RH  055%=      5-min Rain = 0
KAHS 241746Z 19014KT 28/18 A2981 RMK A01 T02810182  RH  055%=      5-min Rain = 0
KAHS 241747Z 20012KT 28/18 A2981 RMK A01 T02810181  RH  054%=      5-min Rain = 0
KAHS 241748Z 19011KT 28/19 A2981 RMK A01 T02820185  RH  055%=      5-min Rain = 0
KAHS 241749Z 17009KT 29/19 A2981 RMK A01 T02850188  RH  056%=      5-min Rain = 0
KAHS 241750Z 16011KT 29/19 A2981 RMK A01 T02900189  RH  054%=      5-min Rain = 0
KAHS 241751Z 17013KT 29/19 A298 RMK A01 T02920189  RH  054%=      5-min Rain = 0
KAHS 241752Z 20014KT 29/19 A298 RMK A01 T02930189  RH  054%=      5-min Rain = 0
KAHS 241753Z 21012G17KT 29/19 A298 RMK A01 T02910185  RH  053%=      5-min Rain = 0
KAHS 241754Z 20014KT 29/19 A298 RMK A01 T02900187  RH  054%=      5-min Rain = 0
KAHS 241755Z 20014KT 29/19 A298 RMK A01 T02880185  RH  054%=      5-min Rain = 0
KAHS 241756Z 19010KT 29/19 A298 RMK A01 T02860185  RH  054%=      5-min Rain = 0
KAHS 241757Z 17012KT 29/19 A298 RMK A01 T02880188  RH  055%=      5-min Rain = 0
KAHS 241758Z 20014G22KT 29/19 A298 RMK A01 T02900188  RH  054%=      5-min Rain = 0
KAHS 241759Z 20016KT 29/18 A298 RMK A01 T02880181  RH  052%=      5-min Rain = 0
KAHS 241800Z 20012G17KT 29/18 A298 RMK A01 T02850180  RH  053%=      5-min Rain = 0
KAHS 241801Z 20012KT 29/18 A298 RMK A01 T02860183  RH  054%=      5-min Rain = 0
KAHS 241802Z 21009KT 29/19 A298 RMK A01 T02900186  RH  053%=      5-min Rain = 0
KAHS 241803Z 21011KT 29/19 A298 RMK A01 T02930185  RH  052%=      5-min Rain = 0
KAHS 241804Z 21011KT 29/18 A298 RMK A01 T02930183  RH  052%=      5-min Rain = 0
KAHS 241805Z 21011KT 29/18 A298 RMK A01 T02910182  RH  052%=      5-min Rain = 0
KAHS 241806Z 20011KT 29/18 A298 RMK A01 T02890184  RH  053%=      5-min Rain = 0
KAHS 241807Z 19010G15KT 29/18 A298 RMK A01 T02890184  RH  053%=      5-min Rain = 0
KAHS 241808Z 18011KT 29/18 A298 RMK A01 T02920184  RH  052%=      5-min Rain = 0
KAHS 241809Z 19015KT 29/18 A298 RMK A01 T02930182  RH  051%=      5-min Rain = 0
KAHS 241810Z 20014KT 29/18 A298 RMK A01 T02900178  RH  051%=      5-min Rain = 0
KAHS 241811Z 19015KT 29/18 A298 RMK A01 T02890179  RH  051%=      5-min Rain = 0
KAHS 241812Z 20014G19KT 29/18 A298 RMK A01 T02880179  RH  052%=      5-min Rain = 0
KAHS 241813Z 21017KT 29/18 A298 RMK A01 T02890181  RH  052%=      5-min Rain = 0
KAHS 241814Z 21014G19KT 29/18 A298 RMK A01 T02870178  RH  052%=      5-min Rain = 0
KAHS 241815Z 21010KT 29/18 A298 RMK A01 T02850179  RH  053%=      5-min Rain = 0
KAHS 241816Z 19008G13KT 29/19 A298 RMK A01 T02890187  RH  054%=      5-min Rain = 0
KAHS 241817Z 20013KT 29/18 A298 RMK A01 T02910182  RH  052%=      5-min Rain = 0
KAHS 241818Z 20011KT 29/18 A298 RMK A01 T02920181  RH  051%=      5-min Rain = 0
KAHS 241819Z 20009KT 29/18 A2979 RMK A01 T02900176  RH  050%=      5-min Rain = 0
KAHS 241820Z 21009G18KT 29/18 A2979 RMK A01 T02910183  RH  052%=      5-min Rain = 0
KAHS 241821Z 21011KT 29/19 A2979 RMK A01 T02940185  RH  052%=      5-min Rain = 0
KAHS 241822Z 22011G16KT 30/19 A2979 RMK A01 T02960185  RH  052%=      5-min Rain = 0
KAHS 241823Z 20012G19KT 30/18 A2979 RMK A01 T02950184  RH  051%=      5-min Rain = 0
KAHS 241824Z 19015KT 29/18 A2979 RMK A01 T02930179  RH  050%=      5-min Rain = 0
KAHS 241825Z 20014G19KT 29/18 A2979 RMK A01 T02940179  RH  050%=      5-min Rain = 0
KAHS 241826Z 21017KT 30/18 A2979 RMK A01 T02950177  RH  049%=      5-min Rain = 0
KAHS 241827Z 20017KT 29/18 A2979 RMK A01 T02930180  RH  051%=      5-min Rain = 0
KAHS 241828Z 20014KT 29/18 A2979 RMK A01 T02910180  RH  051%=      5-min Rain = 0
KAHS 241829Z 21015KT 29/18 A2979 RMK A01 T02920180  RH  051%=      5-min Rain = 0
KAHS 241830Z 20012KT 29/18 A2979 RMK A01 T02920180  RH  051%=      5-min Rain = 0
KAHS 241831Z 19013G18KT 29/18 A2979 RMK A01 T02940181  RH  051%=      5-min Rain = 0
KAHS 241832Z 20012G18KT 30/18 A2979 RMK A01 T02960182  RH  050%=      5-min Rain = 0
KAHS 241833Z 19013KT 30/18 A2979 RMK A01 T02970180  RH  049%=      5-min Rain = 0
KAHS 241834Z 19012KT 30/18 A2979 RMK A01 T02960177  RH  049%=      5-min Rain = 0
KAHS 241835Z 19012KT 29/17 A2979 RMK A01 T02940174  RH  048%=      5-min Rain = 0
KAHS 241836Z 20010KT 30/18 A2979 RMK A01 T02950181  RH  050%=      5-min Rain = 0
KAHS 241837Z 17008KT 30/19 A2979 RMK A01 T02980186  RH  051%=      5-min Rain = 0
KAHS 241838Z 18008KT 30/19 A2979 RMK A01 T03000186  RH  051%=      5-min Rain = 0
KAHS 241839Z 19009KT 30/19 A2979 RMK A01 T03030190  RH  051%=      5-min Rain = 0
KAHS 241840Z 18011KT 30/19 A2979 RMK A01 T03030187  RH  050%=      5-min Rain = 0
KAHS 241841Z 21013KT 30/18 A2979 RMK A01 T03020183  RH  049%=      5-min Rain = 0
KAHS 241842Z 21011KT 30/18 A2979 RMK A01 T02990182  RH  050%=      5-min Rain = 0
KAHS 241843Z 20012KT 30/18 A2979 RMK A01 T03000183  RH  049%=      5-min Rain = 0
KAHS 241844Z 21009KT 30/18 A2979 RMK A01 T02980179  RH  049%=      5-min Rain = 0
KAHS 241845Z 20009G17KT 30/18 A2978 RMK A01 T02960181  RH  050%=      5-min Rain = 0
KAHS 241846Z 22015KT 29/18 A2978 RMK A01 T02930177  RH  050%=      5-min Rain = 0
KAHS 241847Z 20009G15KT 29/18 A2978 RMK A01 T02930182  RH  051%=      5-min Rain = 0
KAHS 241848Z 21015G21KT 30/18 A2978 RMK A01 T02960179  RH  049%=      5-min Rain = 0
KAHS 241849Z 19016KT 30/18 A2978 RMK A01 T02960177  RH  049%=      5-min Rain = 0
KAHS 241850Z 20012KT 30/18 A2978 RMK A01 T02950177  RH  049%=      5-min Rain = 0
KAHS 241851Z 21010KT 30/18 A2978 RMK A01 T02960178  RH  049%=      5-min Rain = 0
KAHS 241852Z 21010KT 30/18 A2978 RMK A01 T02980180  RH  049%=      5-min Rain = 0
KAHS 241853Z 22009KT 30/18 A2978 RMK A01 T02980181  RH  049%=      5-min Rain = 0
KAHS 241854Z 20009KT 30/18 A2978 RMK A01 T02990184  RH  050%=      5-min Rain = 0
KAHS 241855Z 20012KT 30/18 A2978 RMK A01 T03020183  RH  049%=      5-min Rain = 0
KAHS 241856Z 19013KT 30/18 A2978 RMK A01 T03020184  RH  049%=      5-min Rain = 0
KAHS 241857Z 19010KT 30/18 A2978 RMK A01 T03030184  RH  049%=      5-min Rain = 0
KAHS 241858Z 19011KT 30/18 A2978 RMK A01 T03040184  RH  049%=      5-min Rain = 0
KAHS 241859Z 18009KT 31/19 A2978 RMK A01 T03060188  RH  049%=      5-min Rain = 0
KAHS 241900Z 18010KT 31/19 A2978 RMK A01 T03080186  RH  048%=      5-min Rain = 0
KAHS 241901Z 18012KT 31/18 A2978 RMK A01 T03070184  RH  048%=      5-min Rain = 0
KAHS 241902Z 18012KT 30/18 A2978 RMK A01 T03030184  RH  049%=      5-min Rain = 0
KAHS 241903Z 18013KT 30/18 A2978 RMK A01 T02990182  RH  050%=      5-min Rain = 0
KAHS 241904Z 19014KT 30/18 A2978 RMK A01 T02960179  RH  049%=      5-min Rain = 0
KAHS 241905Z 20012KT 30/18 A2978 RMK A01 T02980183  RH  050%=      5-min Rain = 0
KAHS 241906Z 19013G19KT 30/18 A2978 RMK A01 T03000181  RH  049%=      5-min Rain = 0
KAHS 241907Z 18014G19KT 30/18 A2978 RMK A01 T03020183  RH  049%=      5-min Rain = 0
KAHS 241908Z 19010KT 31/19 A2978 RMK A01 T03050186  RH  049%=      5-min Rain = 0
KAHS 241909Z 19012KT 31/18 A2978 RMK A01 T03060184  RH  048%=      5-min Rain = 0
KAHS 241910Z 18011KT 30/18 A2978 RMK A01 T03040184  RH  049%=      5-min Rain = 0
KAHS 241911Z 19011KT 30/18 A2978 RMK A01 T03030183  RH  049%=      5-min Rain = 0
KAHS 241912Z 19010KT 30/19 A2978 RMK A01 T03040186  RH  049%=      5-min Rain = 0
KAHS 241913Z 18011KT 31/19 A2978 RMK A01 T03070185  RH  048%=      5-min Rain = 0
KAHS 241914Z 19009KT 31/19 A2978 RMK A01 T03060186  RH  049%=      5-min Rain = 0
KAHS 241915Z 17011KT 31/18 A2978 RMK A01 T03050184  RH  048%=      5-min Rain = 0
KAHS 241916Z 18010KT 30/18 A2977 RMK A01 T03010179  RH  048%=      5-min Rain = 0
KAHS 241917Z 20013KT 30/18 A2977 RMK A01 T02980181  RH  050%=      5-min Rain = 0
KAHS 241918Z 21010KT 30/18 A2977 RMK A01 T02960181  RH  050%=      5-min Rain = 0
KAHS 241919Z 21013KT 30/18 A2977 RMK A01 T02990182  RH  049%=      5-min Rain = 0
KAHS 241920Z 22009KT 30/19 A2977 RMK A01 T03020185  RH  049%=      5-min Rain = 0
KAHS 241921Z 22011KT 31/18 A2977 RMK A01 T03060184  RH  048%=      5-min Rain = 0
KAHS 241922Z 22013KT 31/18 A2977 RMK A01 T03050181  RH  048%=      5-min Rain = 0
KAHS 241923Z 20014KT 30/18 A2977 RMK A01 T03040182  RH  048%=      5-min Rain = 0
KAHS 241924Z 19014KT 31/18 A2977 RMK A01 T03050183  RH  048%=      5-min Rain = 0
KAHS 241925Z 19011KT 30/18 A2977 RMK A01 T03040182  RH  048%=      5-min Rain = 0
KAHS 241926Z 19012KT 31/18 A2977 RMK A01 T03060183  RH  048%=      5-min Rain = 0
KAHS 241927Z 19010KT 30/18 A2977 RMK A01 T03040180  RH  048%=      5-min Rain = 0
KAHS 241928Z 17008KT 30/18 A2977 RMK A01 T03020183  RH  049%=      5-min Rain = 0
KAHS 241929Z 19009KT 30/18 A2977 RMK A01 T03040184  RH  049%=      5-min Rain = 0
KAHS 241930Z 20013KT 31/19 A2977 RMK A01 T03060186  RH  049%=      5-min Rain = 0
KAHS 241931Z 19012KT 31/18 A2977 RMK A01 T03070184  RH  048%=      5-min Rain = 0
KAHS 241932Z 20012KT 31/18 A2977 RMK A01 T03090184  RH  047%=      5-min Rain = 0
KAHS 241933Z 21013KT 31/18 A2977 RMK A01 T03080181  RH  046%=      5-min Rain = 0
KAHS 241934Z 21012KT 31/18 A2977 RMK A01 T03060179  RH  046%=      5-min Rain = 0
KAHS 241935Z 21010KT 30/18 A2976 RMK A01 T03010176  RH  047%=      5-min Rain = 0
KAHS 241936Z 20010KT 30/18 A2976 RMK A01 T02980177  RH  048%=      5-min Rain = 0
KAHS 241937Z 19008KT 30/18 A2977 RMK A01 T03010182  RH  049%=      5-min Rain = 0
KAHS 241938Z 20012KT 31/18 A2976 RMK A01 T03050183  RH  048%=      5-min Rain = 0
KAHS 241939Z 21014KT 31/18 A2976 RMK A01 T03060176  RH  046%=      5-min Rain = 0
KAHS 241940Z 21013KT 31/18 A2976 RMK A01 T03060176  RH  046%=      5-min Rain = 0
KAHS 241941Z 21015KT 31/18 A2976 RMK A01 T03070177  RH  046%=      5-min Rain = 0
KAHS 241942Z 21011KT 31/18 A2976 RMK A01 T03060176  RH  046%=      5-min Rain = 0
KAHS 241943Z 22009KT 31/18 A2976 RMK A01 T03070179  RH  046%=      5-min Rain = 0
KAHS 241944Z 22009KT 31/18 A2976 RMK A01 T03050176  RH  046%=      5-min Rain = 0
KAHS 241945Z 24009KT 30/18 A2976 RMK A01 T03020176  RH  047%=      5-min Rain = 0
KAHS 241946Z 22012KT 30/18 A2976 RMK A01 T03020179  RH  048%=      5-min Rain = 0
KAHS 241947Z 21009KT 31/18 A2976 RMK A01 T03050181  RH  048%=      5-min Rain = 0
KAHS 241948Z 20009KT 31/18 A2976 RMK A01 T03080183  RH  047%=      5-min Rain = 0
KAHS 241949Z 23007KT 31/18 A2976 RMK A01 T03100180  RH  046%=      5-min Rain = 0
KAHS 241950Z 23009KT 31/18 A2976 RMK A01 T03120183  RH  046%=      5-min Rain = 0
KAHS 241951Z 23011KT 31/18 A2976 RMK A01 T03120178  RH  045%=      5-min Rain = 0
KAHS 241952Z 23010KT 31/17 A2976 RMK A01 T03070171  RH  044%=      5-min Rain = 0
KAHS 241953Z 23009KT 31/17 A2976 RMK A01 T03050169  RH  044%=      5-min Rain = 0
KAHS 241954Z 20009KT 31/18 A2976 RMK A01 T03080179  RH  046%=      5-min Rain = 0
KAHS 241955Z 19010KT 31/18 A2976 RMK A01 T03110182  RH  046%=      5-min Rain = 0
KAHS 241956Z 18010KT 31/18 A2975 RMK A01 T03110179  RH  045%=      5-min Rain = 0
KAHS 241957Z 18010KT 31/18 A2975 RMK A01 T03120180  RH  045%=      5-min Rain = 0
KAHS 241958Z 19012KT 31/18 A2975 RMK A01 T03130179  RH  045%=      5-min Rain = 0
KAHS 241959Z 20010KT 31/18 A2975 RMK A01 T03120177  RH  045%=      5-min Rain = 0
KAHS 242000Z 21011G17KT 31/18 A2975 RMK A01 T03140180  RH  045%=      5-min Rain = 0
KAHS 242001Z 22012KT 31/17 A2975 RMK A01 T03120172  RH  043%=      5-min Rain = 0
KAHS 242002Z 23011KT 31/17 A2975 RMK A01 T03110173  RH  044%=      5-min Rain = 0
KAHS 242003Z 22011KT 31/18 A2975 RMK A01 T03130178  RH  044%=      5-min Rain = 0
KAHS 242004Z 21011G16KT 31/18 A2975 RMK A01 T03130179  RH  045%=      5-min Rain = 0
KAHS 242005Z 22008KT 31/18 A2975 RMK A01 T03130180  RH  045%=      5-min Rain = 0
KAHS 242006Z 23008KT 31/18 A2975 RMK A01 T03130178  RH  044%=      5-min Rain = 0
KAHS 242007Z 20009KT 31/17 A2975 RMK A01 T03110174  RH  044%=      5-min Rain = 0
KAHS 242008Z 20009KT 31/18 A2975 RMK A01 T03110176  RH  044%=      5-min Rain = 0
KAHS 242009Z 21009KT 31/18 A2975 RMK A01 T03100177  RH  045%=      5-min Rain = 0
KAHS 242010Z 22010G15KT 31/18 A2975 RMK A01 T03110178  RH  045%=      5-min Rain = 0
KAHS 242011Z 21013KT 31/18 A2975 RMK A01 T03130177  RH  044%=      5-min Rain = 0
KAHS 242012Z 21011KT 31/17 A2974 RMK A01 T03110174  RH  044%=      5-min Rain = 0
KAHS 242013Z 21008KT 31/18 A2974 RMK A01 T03090175  RH  045%=      5-min Rain = 0
KAHS 242014Z 22006KT 31/18 A2974 RMK A01 T03120180  RH  046%=      5-min Rain = 0
KAHS 242015Z 22008KT 31/18 A2974 RMK A01 T03110176  RH  045%=      5-min Rain = 0
KAHS 242016Z 20008KT 31/18 A2974 RMK A01 T03090178  RH  045%=      5-min Rain = 0
KAHS 242017Z 18007KT 31/18 A2974 RMK A01 T03100178  RH  045%=      5-min Rain = 0
KAHS 242018Z 16009KT 31/18 A2974 RMK A01 T03140181  RH  045%=      5-min Rain = 0
KAHS 242019Z 18008KT 32/18 A2974 RMK A01 T03170180  RH  044%=      5-min Rain = 0
KAHS 242020Z 16011KT 32/17 A2974 RMK A01 T03160173  RH  043%=      5-min Rain = 0
KAHS 242021Z 17012KT 31/17 A2974 RMK A01 T03140174  RH  043%=      5-min Rain = 0
KAHS 242022Z 18012G17KT 31/18 A2974 RMK A01 T03140175  RH  044%=      5-min Rain = 0
KAHS 242023Z 17008KT 32/18 A2974 RMK A01 T03150180  RH  045%=      5-min Rain = 0
KAHS 242024Z 18011KT 32/18 A2974 RMK A01 T03170180  RH  044%=      5-min Rain = 0
KAHS 242025Z 19009KT 32/18 A2974 RMK A01 T03170178  RH  043%=      5-min Rain = 0
KAHS 242026Z 19009KT 31/17 A2974 RMK A01 T03140174  RH  043%=      5-min Rain = 0
KAHS 242027Z 18007KT 31/17 A2974 RMK A01 T03120173  RH  043%=      5-min Rain = 0
KAHS 242028Z 18008KT 31/17 A2974 RMK A01 T03090174  RH  044%=      5-min Rain = 0
KAHS 242029Z 18007KT 31/17 A2974 RMK A01 T03060174  RH  045%=      5-min Rain = 0
KAHS 242030Z 19006KT 31/18 A2974 RMK A01 T03060175  RH  046%=      5-min Rain = 0
KAHS 242031Z 17009KT 31/18 A2974 RMK A01 T03060175  RH  046%=      5-min Rain = 0
KAHS 242032Z 20014KT 31/17 A2974 RMK A01 T03090174  RH  044%=      5-min Rain = 0
KAHS 242033Z 20014KT 31/17 A2974 RMK A01 T03120173  RH  043%=      5-min Rain = 0
KAHS 242034Z 20012KT 31/17 A2974 RMK A01 T03140174  RH  043%=      5-min Rain = 0
KAHS 242035Z 19010KT 32/18 A2974 RMK A01 T03160176  RH  043%=      5-min Rain = 0
KAHS 242036Z 19009KT 32/17 A2974 RMK A01 T03170174  RH  042%=      5-min Rain = 0
KAHS 242037Z 23010KT 32/18 A2973 RMK A01 T03180177  RH  043%=      5-min Rain = 0
KAHS 242038Z 23007KT 32/17 A2973 RMK A01 T03190173  RH  042%=      5-min Rain = 0
KAHS 242039Z 22007KT 32/18 A2973 RMK A01 T03190175  RH  042%=      5-min Rain = 0
KAHS 242040Z 19006KT 32/18 A2973 RMK A01 T03200176  RH  042%=      5-min Rain = 0
KAHS 242041Z 17010KT 32/18 A2973 RMK A01 T03200177  RH  043%=      5-min Rain = 0
KAHS 242042Z 18007KT 32/18 A2973 RMK A01 T03180175  RH  042%=      5-min Rain = 0
KAHS 242043Z 17008KT 32/18 A2973 RMK A01 T03190181  RH  044%=      5-min Rain = 0
KAHS 242044Z 16007KT 32/17 A2973 RMK A01 T03200174  RH  042%=      5-min Rain = 0
KAHS 242045Z 17008KT 32/18 A2973 RMK A01 T03200176  RH  042%=      5-min Rain = 0
KAHS 242046Z 18004KT 32/17 A2973 RMK A01 T03200174  RH  042%=      5-min Rain = 0
KAHS 242047Z 19003KT 32/18 A2973 RMK A01 T03220178  RH  042%=      5-min Rain = 0
KAHS 242048Z 17009KT 32/18 A2972 RMK A01 T03240179  RH  042%=      5-min Rain = 0
KAHS 242049Z 18010KT 32/17 A2972 RMK A01 T03230171  RH  040%=      5-min Rain = 0
KAHS 242050Z 19013KT 33/17 A2972 RMK A01 T03250174  RH  041%=      5-min Rain = 0
KAHS 242051Z 20010KT 32/17 A2972 RMK A01 T03230171  RH  040%=      5-min Rain = 0
KAHS 242052Z 21010KT 32/17 A2972 RMK A01 T03210170  RH  041%=      5-min Rain = 0
KAHS 242053Z 21007KT 32/17 A2972 RMK A01 T03190168  RH  040%=      5-min Rain = 0
KAHS 242054Z 21010KT 32/17 A2972 RMK A01 T03190171  RH  041%=      5-min Rain = 0
KAHS 242055Z 20008KT 32/17 A2972 RMK A01 T03190171  RH  041%=      5-min Rain = 0
KAHS 242056Z 22006KT 32/17 A2972 RMK A01 T03180171  RH  041%=      5-min Rain = 0
KAHS 242057Z 22006KT 32/17 A2972 RMK A01 T03180173  RH  042%=      5-min Rain = 0
KAHS 242058Z 24009KT 32/17 A2972 RMK A01 T03210171  RH  041%=      5-min Rain = 0
KAHS 242059Z 22009KT 32/17 A2972 RMK A01 T03210172  RH  041%=      5-min Rain = 0
KAHS 242100Z 20011KT 32/17 A2971 RMK A01 T03220170  RH  040%=      5-min Rain = 0
KAHS 242101Z 20007KT 32/17 A2971 RMK A01 T03200167  RH  040%=      5-min Rain = 0
KAHS 242102Z 19006KT 32/17 A2971 RMK A01 T03190167  RH  040%=      5-min Rain = 0
KAHS 242103Z 19004KT 32/17 A2971 RMK A01 T03200169  RH  040%=      5-min Rain = 0
KAHS 242104Z 19006KT 32/18 A2971 RMK A01 T03240175  RH  041%=      5-min Rain = 0
KAHS 242105Z 18007KT 33/17 A2971 RMK A01 T03280174  RH  040%=      5-min Rain = 0
KAHS 242106Z 18008KT 33/17 A2971 RMK A01 T03250171  RH  040%=      5-min Rain = 0
KAHS 242107Z 19010KT 33/17 A2971 RMK A01 T03250173  RH  040%=      5-min Rain = 0
KAHS 242108Z 19010KT 32/17 A2971 RMK A01 T03240172  RH  040%=      5-min Rain = 0
KAHS 242109Z 21006KT 32/17 A2971 RMK A01 T03230172  RH  040%=      5-min Rain = 0
KAHS 242110Z 21009KT 32/17 A297 RMK A01 T03230172  RH  041%=      5-min Rain = 0
KAHS 242111Z 20006KT 32/17 A297 RMK A01 T03230171  RH  040%=      5-min Rain = 0
KAHS 242112Z 21008KT 32/17 A297 RMK A01 T03220173  RH  041%=      5-min Rain = 0
KAHS 242113Z 20012KT 32/17 A297 RMK A01 T03240174  RH  041%=      5-min Rain = 0
KAHS 242114Z 19011KT 32/17 A297 RMK A01 T03210169  RH  040%=      5-min Rain = 0
KAHS 242115Z 18008KT 32/17 A297 RMK A01 T03170168  RH  041%=      5-min Rain = 0
KAHS 242116Z 18009KT 32/17 A297 RMK A01 T03160171  RH  042%=      5-min Rain = 0
KAHS 242117Z 21008KT 32/17 A297 RMK A01 T03180171  RH  041%=      5-min Rain = 0
KAHS 242118Z 19009KT 32/17 A297 RMK A01 T03220170  RH  040%=      5-min Rain = 0
KAHS 242119Z 20010KT 33/17 A297 RMK A01 T03260166  RH  038%=      5-min Rain = 0
KAHS 242120Z 20009KT 33/16 A2969 RMK A01 T03260163  RH  038%=      5-min Rain = 0
KAHS 242121Z 19010KT 33/16 A2969 RMK A01 T03250161  RH  038%=      5-min Rain = 0
KAHS 242122Z 20009KT 32/17 A2969 RMK A01 T03240166  RH  039%=      5-min Rain = 0
KAHS 242123Z 20008KT 32/17 A2969 RMK A01 T03240167  RH  039%=      5-min Rain = 0
KAHS 242124Z 18007KT 33/17 A2969 RMK A01 T03250170  RH  040%=      5-min Rain = 0
KAHS 242125Z 18009KT 33/17 A2969 RMK A01 T03260170  RH  039%=      5-min Rain = 0
KAHS 242126Z 18009KT 33/17 A2969 RMK A01 T03280174  RH  040%=      5-min Rain = 0
KAHS 242127Z 18008KT 33/17 A2969 RMK A01 T03270170  RH  039%=      5-min Rain = 0
KAHS 242128Z 20007KT 33/17 A2969 RMK A01 T03270173  RH  040%=      5-min Rain = 0
KAHS 242129Z 19006KT 33/18 A2969 RMK A01 T03300179  RH  041%=      5-min Rain = 0
KAHS 242130Z 18006KT 33/18 A2969 RMK A01 T03330178  RH  040%=      5-min Rain = 0
KAHS 242131Z 17007KT 33/18 A2968 RMK A01 T03330176  RH  039%=      5-min Rain = 0
KAHS 242132Z 17006KT 33/18 A2968 RMK A01 T03330175  RH  039%=      5-min Rain = 0
KAHS 242133Z 19005KT 33/17 A2968 RMK A01 T03320174  RH  039%=      5-min Rain = 0
KAHS 242134Z 16007KT 33/18 A2968 RMK A01 T03330179  RH  040%=      5-min Rain = 0
KAHS 242135Z 17007KT 33/17 A2968 RMK A01 T03330172  RH  038%=      5-min Rain = 0
KAHS 242136Z 17008KT 33/17 A2968 RMK A01 T03310172  RH  039%=      5-min Rain = 0
KAHS 242137Z 17008KT 33/18 A2968 RMK A01 T03300176  RH  040%=      5-min Rain = 0
KAHS 242138Z 17006KT 33/17 A2968 RMK A01 T03310171  RH  038%=      5-min Rain = 0
KAHS 242139Z 19008KT 33/17 A2968 RMK A01 T03300172  RH  039%=      5-min Rain = 0
KAHS 242140Z 18007KT 33/17 A2968 RMK A01 T03270168  RH  039%=      5-min Rain = 0
KAHS 242141Z 19009KT 32/16 A2968 RMK A01 T03230164  RH  039%=      5-min Rain = 0
KAHS 242142Z 19007KT 32/16 A2968 RMK A01 T03190163  RH  039%=      5-min Rain = 0
KAHS 242143Z 19006KT 32/16 A2968 RMK A01 T03180163  RH  039%=      5-min Rain = 0
KAHS 242144Z 17008KT 32/17 A2967 RMK A01 T03170166  RH  040%=      5-min Rain = 0
KAHS 242145Z 18010KT 32/17 A2967 RMK A01 T03170168  RH  041%=      5-min Rain = 0
KAHS 242146Z 18008KT 32/17 A2967 RMK A01 T03170167  RH  041%=      5-min Rain = 0
KAHS 242147Z 19007KT 32/17 A2967 RMK A01 T03180171  RH  041%=      5-min Rain = 0
KAHS 242148Z 19008KT 32/17 A2967 RMK A01 T03170167  RH  041%=      5-min Rain = 0
KAHS 242149Z 20009KT 32/17 A2967 RMK A01 T03160166  RH  040%=      5-min Rain = 0
KAHS 242150Z 17006KT 32/17 A2967 RMK A01 T03200168  RH  040%=      5-min Rain = 0
KAHS 242151Z 17006KT 32/16 A2967 RMK A01 T03230162  RH  038%=      5-min Rain = 0
KAHS 242152Z 19006KT 33/16 A2967 RMK A01 T03250161  RH  037%=      5-min Rain = 0
KAHS 242153Z 20009KT 33/16 A2967 RMK A01 T03270158  RH  036%=      5-min Rain = 0
KAHS 242154Z 20007KT 33/16 A2967 RMK A01 T03290160  RH  036%=      5-min Rain = 0
KAHS 242155Z 21006KT 33/16 A2967 RMK A01 T03300161  RH  036%=      5-min Rain = 0
KAHS 242156Z 23007KT 33/16 A2967 RMK A01 T03330162  RH  036%=      5-min Rain = 0
KAHS 242157Z 22007KT 33/16 A2967 RMK A01 T03340160  RH  035%=      5-min Rain = 0
KAHS 242158Z 22006KT 33/16 A2967 RMK A01 T03320157  RH  035%=      5-min Rain = 0
KAHS 242159Z 19008G13KT 33/16 A2967 RMK A01 T03310162  RH  036%=      5-min Rain = 0
KAHS 242200Z 17014KT 33/16 A2967 RMK A01 T03310163  RH  036%=      5-min Rain = 0
KAHS 242201Z 18012KT 33/17 A2967 RMK A01 T03300165  RH  037%=      5-min Rain = 0
KAHS 242202Z 16008KT 33/17 A2967 RMK A01 T03280169  RH  039%=      5-min Rain = 0
KAHS 242203Z 15008KT 33/17 A2967 RMK A01 T03270167  RH  038%=      5-min Rain = 0
KAHS 242204Z 16006KT 33/17 A2967 RMK A01 T03270168  RH  039%=      5-min Rain = 0
KAHS 242205Z 15005KT 33/17 A2967 RMK A01 T03260169  RH  039%=      5-min Rain = 0
KAHS 242206Z 15007KT 33/17 A2967 RMK A01 T03260165  RH  038%=      5-min Rain = 0
KAHS 242207Z 14008KT 33/17 A2967 RMK A01 T03270165  RH  038%=      5-min Rain = 0
KAHS 242208Z 16008KT 33/17 A2967 RMK A01 T03260167  RH  039%=      5-min Rain = 0
KAHS 242209Z 17009KT 33/17 A2967 RMK A01 T03270173  RH  040%=      5-min Rain = 0
KAHS 242210Z 18010KT 33/17 A2967 RMK A01 T03260170  RH  039%=      5-min Rain = 0
KAHS 242211Z 18010KT 32/17 A2966 RMK A01 T03230166  RH  039%=      5-min Rain = 0
KAHS 242212Z 17009KT 32/17 A2966 RMK A01 T03190165  RH  040%=      5-min Rain = 0
KAHS 242213Z 18006KT 32/17 A2967 RMK A01 T03190169  RH  041%=      5-min Rain = 0
KAHS 242214Z 17006KT 32/17 A2966 RMK A01 T03230172  RH  041%=      5-min Rain = 0
KAHS 242215Z 18007KT 33/17 A2966 RMK A01 T03260169  RH  039%=      5-min Rain = 0
KAHS 242216Z 18007KT 33/17 A2966 RMK A01 T03290166  RH  038%=      5-min Rain = 0
KAHS 242217Z 18008KT 33/16 A2966 RMK A01 T03300162  RH  037%=      5-min Rain = 0
KAHS 242218Z 18006KT 33/16 A2966 RMK A01 T03300163  RH  037%=      5-min Rain = 0
KAHS 242219Z 15006KT 33/16 A2966 RMK A01 T03280162  RH  037%=      5-min Rain = 0
KAHS 242220Z 15006KT 33/16 A2966 RMK A01 T03260161  RH  037%=      5-min Rain = 0
KAHS 242221Z 17005KT 33/16 A2966 RMK A01 T03250162  RH  038%=      5-min Rain = 0
KAHS 242222Z 19006KT 32/16 A2966 RMK A01 T03240164  RH  038%=      5-min Rain = 0
KAHS 242223Z 20006KT 32/16 A2966 RMK A01 T03210161  RH  038%=      5-min Rain = 0
KAHS 242224Z 19008KT 32/16 A2966 RMK A01 T03200161  RH  038%=      5-min Rain = 0
KAHS 242225Z 19007KT 32/16 A2966 RMK A01 T03190161  RH  039%=      5-min Rain = 0
KAHS 242226Z 18007KT 32/16 A2966 RMK A01 T03190163  RH  039%=      5-min Rain = 0
KAHS 242227Z 18006KT 32/16 A2966 RMK A01 T03200161  RH  038%=      5-min Rain = 0
KAHS 242228Z 18004KT 32/16 A2966 RMK A01 T03200162  RH  039%=      5-min Rain = 0
KAHS 242229Z 19004KT 32/16 A2966 RMK A01 T03210164  RH  039%=      5-min Rain = 0
KAHS 242230Z 19004KT 32/16 A2965 RMK A01 T03200164  RH  039%=      5-min Rain = 0
KAHS 242231Z 20004KT 32/17 A2965 RMK A01 T03200169  RH  040%=      5-min Rain = 0
KAHS 242232Z 19006KT 32/17 A2965 RMK A01 T03200167  RH  040%=      5-min Rain = 0
KAHS 242233Z 19007KT 32/16 A2965 RMK A01 T03190162  RH  039%=      5-min Rain = 0
KAHS 242234Z 20008KT 32/16 A2965 RMK A01 T03190160  RH  038%=      5-min Rain = 0
KAHS 242235Z 20007KT 32/16 A2965 RMK A01 T03190155  RH  037%=      5-min Rain = 0
KAHS 242236Z 19006KT 32/16 A2965 RMK A01 T03180157  RH  038%=      5-min Rain = 0
KAHS 242237Z 19007KT 32/16 A2965 RMK A01 T03180159  RH  038%=      5-min Rain = 0
KAHS 242238Z 20006KT 32/16 A2965 RMK A01 T03180158  RH  038%=      5-min Rain = 0
KAHS 242239Z 17006KT 32/16 A2965 RMK A01 T03190158  RH  038%=      5-min Rain = 0
KAHS 242240Z 17007KT 32/16 A2965 RMK A01 T03200162  RH  039%=      5-min Rain = 0
KAHS 242241Z 18007KT 32/16 A2965 RMK A01 T03210163  RH  039%=      5-min Rain = 0
KAHS 242242Z 19009G14KT 32/16 A2964 RMK A01 T03210161  RH  038%=      5-min Rain = 0
KAHS 242243Z 17010KT 32/16 A2964 RMK A01 T03210161  RH  038%=      5-min Rain = 0
KAHS 242244Z 17006KT 32/16 A2964 RMK A01 T03220163  RH  039%=      5-min Rain = 0
KAHS 242245Z 16006KT 32/16 A2964 RMK A01 T03230164  RH  038%=      5-min Rain = 0
KAHS 242246Z 18005KT 32/16 A2964 RMK A01 T03240161  RH  038%=      5-min Rain = 0
KAHS 242247Z 16006KT 32/16 A2964 RMK A01 T03230164  RH  039%=      5-min Rain = 0
KAHS 242248Z 16010KT 32/16 A2963 RMK A01 T03240164  RH  038%=      5-min Rain = 0
KAHS 242249Z 17009KT 32/16 A2963 RMK A01 T03240158  RH  037%=      5-min Rain = 0
KAHS 242250Z 17008KT 32/16 A2963 RMK A01 T03240156  RH  037%=      5-min Rain = 0
KAHS 242251Z 17008KT 32/15 A2963 RMK A01 T03230153  RH  036%=      5-min Rain = 0
KAHS 242252Z 17005KT 32/15 A2963 RMK A01 T03220154  RH  036%=      5-min Rain = 0
KAHS 242253Z 16006KT 32/16 A2964 RMK A01 T03230160  RH  037%=      5-min Rain = 0
KAHS 242254Z 16006KT 32/16 A2964 RMK A01 T03240159  RH  037%=      5-min Rain = 0
KAHS 242255Z 17006KT 32/16 A2964 RMK A01 T03240162  RH  038%=      5-min Rain = 0
KAHS 242256Z 19006KT 32/16 A2964 RMK A01 T03240162  RH  038%=      5-min Rain = 0
KAHS 242257Z 19007KT 32/17 A2964 RMK A01 T03240166  RH  039%=      5-min Rain = 0
KAHS 242258Z 19008KT 32/16 A2964 RMK A01 T03230164  RH  039%=      5-min Rain = 0
KAHS 242259Z 18007KT 32/16 A2964 RMK A01 T03220161  RH  038%=      5-min Rain = 0
KAHS 242300Z 17005KT 32/16 A2964 RMK A01 T03230164  RH  039%=      5-min Rain = 0
KAHS 242301Z 17007KT 32/16 A2964 RMK A01 T03230164  RH  038%=      5-min Rain = 0
KAHS 242302Z 15007KT 32/16 A2964 RMK A01 T03230159  RH  037%=      5-min Rain = 0
KAHS 242303Z 16006KT 32/16 A2964 RMK A01 T03230157  RH  037%=      5-min Rain = 0
KAHS 242304Z 16007KT 32/16 A2964 RMK A01 T03230157  RH  037%=      5-min Rain = 0
KAHS 242305Z 15006KT 32/16 A2964 RMK A01 T03230156  RH  037%=      5-min Rain = 0
KAHS 242306Z 15006KT 32/16 A2964 RMK A01 T03240162  RH  038%=      5-min Rain = 0
KAHS 242307Z 15006KT 33/16 A2963 RMK A01 T03250160  RH  037%=      5-min Rain = 0
KAHS 242308Z 14005KT 32/16 A2963 RMK A01 T03240160  RH  037%=      5-min Rain = 0
KAHS 242309Z 14006KT 32/16 A2963 RMK A01 T03240163  RH  038%=      5-min Rain = 0
KAHS 242310Z 13009KT 32/16 A2963 RMK A01 T03230164  RH  038%=      5-min Rain = 0
KAHS 242311Z 15006KT 32/16 A2963 RMK A01 T03220164  RH  039%=      5-min Rain = 0
KAHS 242312Z 14008KT 32/17 A2963 RMK A01 T03210166  RH  039%=      5-min Rain = 0
KAHS 242313Z 15007KT 32/17 A2962 RMK A01 T03210167  RH  040%=      5-min Rain = 0
KAHS 242314Z 14008KT 32/17 A2962 RMK A01 T03210166  RH  040%=      5-min Rain = 0
KAHS 242315Z 14008KT 32/17 A2962 RMK A01 T03200166  RH  040%=      5-min Rain = 0
KAHS 242316Z 14009KT 32/17 A2962 RMK A01 T03190168  RH  040%=      5-min Rain = 0
KAHS 242317Z 12009KT 32/17 A2962 RMK A01 T03180168  RH  041%=      5-min Rain = 0
KAHS 242318Z 14009KT 32/17 A2962 RMK A01 T03170170  RH  041%=      5-min Rain = 0
KAHS 242319Z 14008KT 32/17 A2962 RMK A01 T03160169  RH  041%=      5-min Rain = 0
KAHS 242320Z 14009KT 32/17 A2962 RMK A01 T03150169  RH  042%=      5-min Rain = 0
KAHS 242321Z 14009KT 32/17 A2962 RMK A01 T03150170  RH  042%=      5-min Rain = 0
KAHS 242322Z 13009KT 31/17 A2962 RMK A01 T03140170  RH  042%=      5-min Rain = 0
KAHS 242323Z 14009KT 31/17 A2961 RMK A01 T03140170  RH  042%=      5-min Rain = 0
KAHS 242324Z 13011KT 31/17 A2961 RMK A01 T03130167  RH  042%=      5-min Rain = 0
KAHS 242325Z 13010KT 31/17 A2961 RMK A01 T03120167  RH  042%=      5-min Rain = 0
KAHS 242326Z 13009KT 31/17 A2961 RMK A01 T03120167  RH  042%=      5-min Rain = 0
KAHS 242327Z 13009KT 31/17 A2961 RMK A01 T03110167  RH  042%=      5-min Rain = 0
KAHS 242328Z 13008KT 31/17 A2961 RMK A01 T03110167  RH  042%=      5-min Rain = 0
KAHS 242329Z 14010KT 31/17 A2961 RMK A01 T03110166  RH  042%=      5-min Rain = 0
KAHS 242330Z 13009G14KT 31/17 A2962 RMK A01 T03110166  RH  042%=      5-min Rain = 0
KAHS 242331Z 13013KT 31/17 A2962 RMK A01 T03110166  RH  042%=      5-min Rain = 0
KAHS 242332Z 14012KT 31/16 A2962 RMK A01 T03110164  RH  041%=      5-min Rain = 0
KAHS 242333Z 15010KT 31/17 A2963 RMK A01 T03110166  RH  042%=      5-min Rain = 0
KAHS 242334Z 18015G21KT 31/17 A2964 RMK A01 T03110167  RH  042%=      5-min Rain = 0
KAHS 242335Z 18026G36KT 30/17 A2965 RMK A01 T03000167  RH  045%=      5-min Rain = 0
KAHS 242336Z 17031G40KT 28/16 A2965 RMK A01 T02750163  RH  051%=      5-min Rain = 0
KAHS 242337Z 17026G32KT 25/16 A2965 RMK A01 T02510162  RH  058%=      5-min Rain = 0
KAHS 242338Z 17027G33KT 23/16 A2966 RMK A01 T02310158  RH  063%=      5-min Rain = 0
KAHS 242339Z 18025G39KT 21/15 A2965 RMK A01 T02100149  RH  068%=      5-min Rain = 0.01
KAHS 242340Z 17030G37KT 19/15 A2965 RMK A01 T01930153  RH  078%=      5-min Rain = 0.03
KAHS 242341Z 16027G33KT 19/17 A2966 RMK A01 T01890166  RH  086%=      5-min Rain = 0.03
KAHS 242342Z 16033G38KT 19/17 A2968 RMK A01 T01850165  RH  088%=      5-min Rain = 0.02
KAHS 242343Z 16028G34KT 19/16 A2968 RMK A01 T01860161  RH  086%=      5-min Rain = 0.03
KAHS 242344Z 15026G32KT 18/16 A2968 RMK A01 T01820155  RH  084%=      5-min Rain = 0.03
KAHS 242345Z 15025G32KT 18/15 A2969 RMK A01 T01760152  RH  086%=      5-min Rain = 0.03
KAHS 242346Z 14025G30KT 17/15 A2969 RMK A01 T01710149  RH  087%=      5-min Rain = 0.03
KAHS 242347Z 13024G31KT 17/15 A2968 RMK A01 T01690150  RH  088%=      5-min Rain = 0.03
KAHS 242348Z 13022G28KT 17/15 A2968 RMK A01 T01680150  RH  089%=      5-min Rain = 0.03
KAHS 242349Z 13024G29KT 17/15 A2968 RMK A01 T01680152  RH  090%=      5-min Rain = 0.04
KAHS 242350Z 12020KT 17/15 A2968 RMK A01 T01670151  RH  090%=      5-min Rain = 0.04
KAHS 242351Z 12021G27KT 17/15 A2967 RMK A01 T01660151  RH  091%=      5-min Rain = 0.04
KAHS 242352Z 10017KT 17/16 A2967 RMK A01 T01690155  RH  092%=      5-min Rain = 0.05
KAHS 242353Z 09016G21KT 17/15 A2967 RMK A01 T01710154  RH  090%=      5-min Rain = 0.02
KAHS 242354Z 08018KT 17/15 A2966 RMK A01 T01730151  RH  087%=      5-min Rain = 0.02
KAHS 242355Z 07018G23KT 17/15 A2966 RMK A01 T01740151  RH  086%=      5-min Rain = 0.03
KAHS 242356Z 07021KT 18/15 A2965 RMK A01 T01770152  RH  086%=      5-min Rain = 0.04
KAHS 242357Z 07021KT 18/15 A2964 RMK A01 T01750152  RH  086%=      5-min Rain = 0.06
KAHS 242358Z 07021KT 17/15 A2963 RMK A01 T01720153  RH  088%=      5-min Rain = 0.05
KAHS 242359Z 07021KT 17/16 A2962 RMK A01 T01710156  RH  091%=      5-min Rain = 0.04
KAHS 250000Z 07020G26KT 17/16 A2962 RMK A01 T01710157  RH  091%=      5-min Rain = 0.01
KAHS 250001Z 07017KT 17/16 A2961 RMK A01 T01720157  RH  091%=      5-min Rain = 0.02
KAHS 250002Z 08017KT 17/16 A2961 RMK A01 T01720156  RH  090%=      5-min Rain = 0.01
KAHS 250003Z 08015KT 18/16 A2961 RMK A01 T01750155  RH  088%=      5-min Rain = 0
KAHS 250004Z 07017KT 18/15 A2961 RMK A01 T01780154  RH  086%=      5-min Rain = 0.01
KAHS 250005Z 07017KT 18/16 A2961 RMK A01 T01790155  RH  086%=      5-min Rain = 0.01
KAHS 250006Z 07015KT 18/16 A2962 RMK A01 T01780155  RH  087%=      5-min Rain = 0
KAHS 250007Z 08013KT 18/16 A2962 RMK A01 T01770156  RH  087%=      5-min Rain = 0.01
KAHS 250008Z 08013G18KT 18/16 A2962 RMK A01 T01770156  RH  088%=      5-min Rain = 0
KAHS 250009Z 08013KT 18/16 A2963 RMK A01 T01770157  RH  088%=      5-min Rain = 0
KAHS 250010Z 07015KT 18/16 A2962 RMK A01 T01760158  RH  089%=      5-min Rain = 0.01
KAHS 250011Z 07015KT 18/16 A2962 RMK A01 T01760157  RH  089%=      5-min Rain = 0
KAHS 250012Z 08014KT 18/16 A2962 RMK A01 T01780156  RH  087%=      5-min Rain = 0
KAHS 250013Z 08012KT 18/16 A2962 RMK A01 T01800156  RH  085%=      5-min Rain = 0
KAHS 250014Z 08011KT 18/15 A2962 RMK A01 T01830154  RH  083%=      5-min Rain = 0
KAHS 250015Z 10009KT 18/15 A2963 RMK A01 T01840154  RH  082%=      5-min Rain = 0
KAHS 250016Z 10008KT 18/15 A2963 RMK A01 T01840154  RH  082%=      5-min Rain = 0
KAHS 250017Z 09011KT 18/15 A2963 RMK A01 T01840153  RH  082%=      5-min Rain = 0
KAHS 250018Z 10010KT 19/15 A2963 RMK A01 T01850153  RH  081%=      5-min Rain = 0
KAHS 250019Z 09009KT 19/15 A2963 RMK A01 T01850153  RH  082%=      5-min Rain = 0
KAHS 250020Z 10008KT 19/15 A2963 RMK A01 T01850153  RH  082%=      5-min Rain = 0
KAHS 250021Z 10007KT 19/15 A2963 RMK A01 T01850154  RH  082%=      5-min Rain = 0
KAHS 250022Z 10007KT 18/15 A2963 RMK A01 T01840154  RH  083%=      5-min Rain = 0
KAHS 250023Z 10007KT 18/16 A2963 RMK A01 T01840155  RH  083%=      5-min Rain = 0
KAHS 250024Z 12008KT 18/16 A2963 RMK A01 T01840156  RH  083%=      5-min Rain = 0
KAHS 250025Z 13009KT 18/16 A2964 RMK A01 T01840156  RH  084%=      5-min Rain = 0
KAHS 250026Z 16010KT 18/16 A2964 RMK A01 T01830157  RH  084%=      5-min Rain = 0
KAHS 250027Z 17013KT 18/16 A2964 RMK A01 T01830157  RH  085%=      5-min Rain = 0
KAHS 250028Z 17014KT 19/16 A2965 RMK A01 T01850159  RH  085%=      5-min Rain = 0
KAHS 250029Z 17015G21KT 19/16 A2965 RMK A01 T01870157  RH  083%=      5-min Rain = 0
KAHS 250030Z 15015G20KT 19/15 A2965 RMK A01 T01890154  RH  080%=      5-min Rain = 0
KAHS 250031Z 16016KT 19/15 A2965 RMK A01 T01930151  RH  077%=      5-min Rain = 0
KAHS 250032Z 17016G21KT 20/15 A2965 RMK A01 T01960150  RH  075%=      5-min Rain = 0
KAHS 250033Z 17017KT 20/15 A2966 RMK A01 T01970148  RH  073%=      5-min Rain = 0
KAHS 250034Z 17017G22KT 20/15 A2966 RMK A01 T01980145  RH  072%=      5-min Rain = 0
KAHS 250035Z 18017KT 20/14 A2967 RMK A01 T01990144  RH  071%=      5-min Rain = 0
KAHS 250036Z 19018KT 20/14 A2968 RMK A01 T02000143  RH  070%=      5-min Rain = 0
KAHS 250037Z 19018G24KT 20/14 A2969 RMK A01 T02010143  RH  069%=      5-min Rain = 0
KAHS 250038Z 19017G24KT 20/14 A2969 RMK A01 T02040141  RH  067%=      5-min Rain = 0
KAHS 250039Z 22015G20KT 20/14 A297 RMK A01 T02030144  RH  069%=      5-min Rain = 0
KAHS 250040Z 21018G25KT 20/15 A297 RMK A01 T02010145  RH  070%=      5-min Rain = 0
KAHS 250041Z 21017G22KT 20/14 A297 RMK A01 T02010138  RH  067%=      5-min Rain = 0
KAHS 250042Z 22017G23KT 20/13 A297 RMK A01 T02000134  RH  066%=      5-min Rain = 0
KAHS 250043Z 21014KT 20/13 A297 RMK A01 T01960134  RH  068%=      5-min Rain = 0.01
KAHS 250044Z 21015KT 19/14 A297 RMK A01 T01900135  RH  070%=      5-min Rain = 0.01
KAHS 250045Z 22011KT 19/14 A2969 RMK A01 T01850136  RH  073%=      5-min Rain = 0
KAHS 250046Z 22008KT 18/14 A2968 RMK A01 T01820136  RH  074%=      5-min Rain = 0.01
KAHS 250047Z 23011G16KT 18/14 A2967 RMK A01 T01790138  RH  077%=      5-min Rain = 0
KAHS 250048Z 22012KT 18/14 A2967 RMK A01 T01770141  RH  079%=      5-min Rain = 0
KAHS 250049Z 22013KT 18/15 A2966 RMK A01 T01750145  RH  082%=      5-min Rain = 0.01
KAHS 250050Z 21017KT 18/15 A2966 RMK A01 T01750150  RH  085%=      5-min Rain = 0
KAHS 250051Z 21020G27KT 18/15 A2966 RMK A01 T01790151  RH  083%=      5-min Rain = 0
KAHS 250052Z 22020KT 18/15 A2966 RMK A01 T01840147  RH  079%=      5-min Rain = 0.01
KAHS 250053Z 22019KT 18/14 A2965 RMK A01 T01840143  RH  077%=      5-min Rain = 0.01
KAHS 250054Z 22019G25KT 18/14 A2966 RMK A01 T01840142  RH  077%=      5-min Rain = 0
KAHS 250055Z 22019KT 18/14 A2966 RMK A01 T01840143  RH  077%=      5-min Rain = 0.01
KAHS 250056Z 21015KT 18/14 A2967 RMK A01 T01830142  RH  077%=      5-min Rain = 0
KAHS 250057Z 21012KT 18/14 A2967 RMK A01 T01820141  RH  077%=      5-min Rain = 0.01
KAHS 250058Z 21010KT 18/14 A2967 RMK A01 T01810142  RH  078%=      5-min Rain = 0
KAHS 250059Z 20009KT 18/14 A2967 RMK A01 T01800143  RH  079%=      5-min Rain = 0
KAHS 250100Z 20009KT 18/14 A2968 RMK A01 T01790143  RH  079%=      5-min Rain = 0.01
KAHS 250101Z 22008KT 18/14 A2967 RMK A01 T01790144  RH  080%=      5-min Rain = 0
KAHS 250102Z 25007KT 18/14 A2967 RMK A01 T01790144  RH  080%=      5-min Rain = 0
KAHS 250103Z 26007KT 18/15 A2967 RMK A01 T01780145  RH  081%=      5-min Rain = 0
KAHS 250104Z 26007KT 18/15 A2967 RMK A01 T01760146  RH  082%=      5-min Rain = 0.01
KAHS 250105Z 26008KT 17/15 A2968 RMK A01 T01740146  RH  083%=      5-min Rain = 0
KAHS 250106Z 26006KT 17/15 A2968 RMK A01 T01740146  RH  084%=      5-min Rain = 0
KAHS 250107Z 28007KT 17/15 A2969 RMK A01 T01740146  RH  084%=      5-min Rain = 0
KAHS 250108Z 30008KT 17/15 A2969 RMK A01 T01740147  RH  084%=      5-min Rain = 0
KAHS 250109Z 30011KT 17/15 A297 RMK A01 T01740148  RH  085%=      5-min Rain = 0.01
KAHS 250110Z 31014KT 18/15 A2972 RMK A01 T01750148  RH  085%=      5-min Rain = 0
KAHS 250111Z 31022G29KT 18/15 A2974 RMK A01 T01770148  RH  083%=      5-min Rain = 0
KAHS 250112Z 31021G27KT 18/15 A2976 RMK A01 T01790150  RH  083%=      5-min Rain = 0
KAHS 250113Z 31017G24KT 18/15 A2977 RMK A01 T01790152  RH  084%=      5-min Rain = 0
KAHS 250114Z 32016G21KT 18/15 A2978 RMK A01 T01780153  RH  085%=      5-min Rain = 0.01
KAHS 250115Z 32014KT 18/15 A2979 RMK A01 T01770152  RH  085%=      5-min Rain = 0
KAHS 250116Z 32012KT 18/15 A298 RMK A01 T01770152  RH  085%=      5-min Rain = 0
KAHS 250117Z 33009KT 18/15 A2981 RMK A01 T01780152  RH  085%=      5-min Rain = 0
KAHS 250118Z 33015G22KT 18/15 A2981 RMK A01 T01770153  RH  086%=      5-min Rain = 0.03
KAHS 250119Z 33023G28KT 18/15 A2981 RMK A01 T01750153  RH  087%=      5-min Rain = 0.03
KAHS 250120Z 32019KT 17/15 A2982 RMK A01 T01720151  RH  088%=      5-min Rain = 0.03
KAHS 250121Z 32019G25KT 17/15 A2983 RMK A01 T01700150  RH  088%=      5-min Rain = 0.01
KAHS 250122Z 31018KT 17/15 A2984 RMK A01 T01680149  RH  089%=      5-min Rain = 0.01
KAHS 250123Z 31019KT 17/15 A2984 RMK A01 T01670148  RH  089%=      5-min Rain = 0.01
KAHS 250124Z 31014G19KT 17/15 A2984 RMK A01 T01660148  RH  089%=      5-min Rain = 0.01
KAHS 250125Z 33012KT 17/15 A2984 RMK A01 T01650147  RH  089%=      5-min Rain = 0.02
KAHS 250126Z 33010KT 16/15 A2984 RMK A01 T01640148  RH  090%=      5-min Rain = 0.02
KAHS 250127Z 34010KT 16/15 A2984 RMK A01 T01630148  RH  091%=      5-min Rain = 0.02
KAHS 250128Z 35010KT 16/15 A2984 RMK A01 T01620148  RH  092%=      5-min Rain = 0.02
KAHS 250129Z 35011KT 16/15 A2984 RMK A01 T01610148  RH  092%=      5-min Rain = 0.01
KAHS 250130Z 36010G15KT 16/15 A2984 RMK A01 T01600147  RH  092%=      5-min Rain = 0.01
KAHS 250131Z 36012KT 16/15 A2984 RMK A01 T01600147  RH  092%=      5-min Rain = 0
KAHS 250132Z 00016KT 16/15 A2984 RMK A01 T01590147  RH  092%=      5-min Rain = 0.01
KAHS 250133Z 36017KT 16/15 A2984 RMK A01 T01580145  RH  092%=      5-min Rain = 0
KAHS 250134Z 00014G19KT 16/14 A2985 RMK A01 T01570143  RH  091%=      5-min Rain = 0.01
KAHS 250135Z 00015KT 16/14 A2985 RMK A01 T01570143  RH  091%=      5-min Rain = 0.01
KAHS 250136Z 01013KT 16/14 A2985 RMK A01 T01560142  RH  091%=      5-min Rain = 0
KAHS 250137Z 01009KT 16/14 A2985 RMK A01 T01570143  RH  091%=      5-min Rain = 0.01
KAHS 250138Z 02008KT 16/14 A2985 RMK A01 T01560143  RH  092%=      5-min Rain = 0.01
KAHS 250139Z 02012KT 16/14 A2985 RMK A01 T01570144  RH  092%=      5-min Rain = 0.01
KAHS 250140Z 02012KT 16/15 A2984 RMK A01 T01570145  RH  092%=      5-min Rain = 0.02
KAHS 250141Z 02011KT 16/15 A2983 RMK A01 T01570145  RH  092%=      5-min Rain = 0.01
KAHS 250142Z 03011KT 16/15 A2982 RMK A01 T01570145  RH  092%=      5-min Rain = 0.02
KAHS 250143Z 04009KT 16/15 A2982 RMK A01 T01570145  RH  093%=      5-min Rain = 0.01
KAHS 250144Z 04008KT 16/15 A2981 RMK A01 T01570146  RH  093%=      5-min Rain = 0.01
KAHS 250145Z 04008KT 16/15 A298 RMK A01 T01570146  RH  093%=      5-min Rain = 0
KAHS 250146Z 04007KT 16/15 A298 RMK A01 T01570146  RH  093%=      5-min Rain = 0.01
KAHS 250147Z 04007KT 16/15 A2979 RMK A01 T01560146  RH  093%=      5-min Rain = 0
KAHS 250148Z 05006KT 16/15 A2979 RMK A01 T01560146  RH  094%=      5-min Rain = 0
KAHS 250149Z 05005KT 16/15 A2978 RMK A01 T01560146  RH  094%=      5-min Rain = 0
KAHS 250150Z 09004KT 16/15 A2978 RMK A01 T01560146  RH  094%=      5-min Rain = 0
KAHS 250151Z 12005KT 16/15 A2977 RMK A01 T01560146  RH  094%=      5-min Rain = 0
KAHS 250152Z 11007KT 16/15 A2977 RMK A01 T01560146  RH  094%=      5-min Rain = 0
KAHS 250153Z 11009KT 16/15 A2976 RMK A01 T01560147  RH  094%=      5-min Rain = 0
KAHS 250154Z 09008KT 16/15 A2976 RMK A01 T01570148  RH  094%=      5-min Rain = 0
KAHS 250155Z 09010KT 16/15 A2976 RMK A01 T01570149  RH  095%=      5-min Rain = 0
KAHS 250156Z 08010KT 16/15 A2975 RMK A01 T01570149  RH  095%=      5-min Rain = 0
KAHS 250157Z 08009KT 16/15 A2975 RMK A01 T01570149  RH  095%=      5-min Rain = 0
KAHS 250158Z 07009KT 16/15 A2975 RMK A01 T01570149  RH  095%=      5-min Rain = 0
KAHS 250159Z 06009KT 16/15 A2974 RMK A01 T01560149  RH  095%=      5-min Rain = 0
KAHS 250200Z 06010KT 16/15 A2974 RMK A01 T01570149  RH  095%=      5-min Rain = 0
KAHS 250201Z 06010KT 16/15 A2974 RMK A01 T01570150  RH  096%=      5-min Rain = 0
KAHS 250202Z 07008KT 16/15 A2974 RMK A01 T01560150  RH  096%=      5-min Rain = 0
KAHS 250203Z 08009KT 16/15 A2974 RMK A01 T01570150  RH  096%=      5-min Rain = 0.01
KAHS 250204Z 08010KT 16/15 A2974 RMK A01 T01570150  RH  096%=      5-min Rain = 0
KAHS 250205Z 09009KT 16/15 A2974 RMK A01 T01570151  RH  096%=      5-min Rain = 0
KAHS 250206Z 10010KT 16/15 A2974 RMK A01 T01570151  RH  096%=      5-min Rain = 0
KAHS 250207Z 10010KT 16/15 A2974 RMK A01 T01570151  RH  096%=      5-min Rain = 0
KAHS 250208Z 08010KT 16/15 A2975 RMK A01 T01570151  RH  096%=      5-min Rain = 0
KAHS 250209Z 08011KT 16/15 A2975 RMK A01 T01570151  RH  096%=      5-min Rain = 0
KAHS 250210Z 07012KT 16/15 A2975 RMK A01 T01560151  RH  096%=      5-min Rain = 0
KAHS 250211Z 08013KT 16/15 A2975 RMK A01 T01560151  RH  096%=      5-min Rain = 0
KAHS 250212Z 08012KT 16/15 A2974 RMK A01 T01560150  RH  096%=      5-min Rain = 0
KAHS 250213Z 08011KT 16/15 A2974 RMK A01 T01560150  RH  096%=      5-min Rain = 0
KAHS 250214Z 07013KT 16/15 A2974 RMK A01 T01550150  RH  097%=      5-min Rain = 0
KAHS 250215Z 06014KT 16/15 A2974 RMK A01 T01550150  RH  097%=      5-min Rain = 0
KAHS 250216Z 06015KT 16/15 A2973 RMK A01 T01550150  RH  097%=      5-min Rain = 0
KAHS 250217Z 06013KT 16/15 A2973 RMK A01 T01550150  RH  097%=      5-min Rain = 0
KAHS 250218Z 08014KT 16/15 A2973 RMK A01 T01550150  RH  097%=      5-min Rain = 0
KAHS 250219Z 08012KT 16/15 A2973 RMK A01 T01550150  RH  096%=      5-min Rain = 0.01
KAHS 250220Z 08013KT 16/15 A2972 RMK A01 T01550150  RH  097%=      5-min Rain = 0
KAHS 250221Z 08013KT 16/15 A2972 RMK A01 T01550149  RH  096%=      5-min Rain = 0
KAHS 250222Z 08011KT 16/15 A2972 RMK A01 T01550149  RH  096%=      5-min Rain = 0
KAHS 250223Z 08010KT 16/15 A2973 RMK A01 T01550149  RH  096%=      5-min Rain = 0
KAHS 250224Z 07012KT 15/15 A2973 RMK A01 T01540148  RH  096%=      5-min Rain = 0
KAHS 250225Z 08007KT 15/15 A2973 RMK A01 T01540148  RH  096%=      5-min Rain = 0
KAHS 250226Z 08008KT 15/15 A2973 RMK A01 T01540149  RH  096%=      5-min Rain = 0
KAHS 250227Z 09009KT 15/15 A2973 RMK A01 T01540148  RH  096%=      5-min Rain = 0
KAHS 250228Z 09008KT 15/15 A2973 RMK A01 T01540148  RH  096%=      5-min Rain = 0
KAHS 250229Z 10007KT 15/15 A2972 RMK A01 T01540147  RH  096%=      5-min Rain = 0
KAHS 250230Z 10008KT 15/15 A2972 RMK A01 T01540147  RH  096%=      5-min Rain = 0
KAHS 250231Z 09008KT 15/15 A2972 RMK A01 T01540147  RH  096%=      5-min Rain = 0
KAHS 250232Z 08010KT 15/15 A2972 RMK A01 T01540147  RH  096%=      5-min Rain = 0
KAHS 250233Z 08010KT 15/15 A2972 RMK A01 T01540147  RH  096%=      5-min Rain = 0
KAHS 250234Z 08010KT 15/15 A2972 RMK A01 T01540147  RH  096%=      5-min Rain = 0
KAHS 250235Z 08009KT 15/15 A2972 RMK A01 T01540147  RH  096%=      5-min Rain = 0
KAHS 250236Z 08010KT 15/15 A2972 RMK A01 T01540147  RH  096%=      5-min Rain = 0
KAHS 250237Z 08009KT 15/15 A2972 RMK A01 T01540147  RH  096%=      5-min Rain = 0
KAHS 250238Z 08010KT 15/15 A2972 RMK A01 T01540147  RH  096%=      5-min Rain = 0
KAHS 250239Z 08010KT 15/15 A2971 RMK A01 T01540147  RH  096%=      5-min Rain = 0
KAHS 250240Z 09010G15KT 15/15 A2971 RMK A01 T01540147  RH  096%=      5-min Rain = 0.01
KAHS 250241Z 08011KT 15/15 A2971 RMK A01 T01540147  RH  096%=      5-min Rain = 0
KAHS 250242Z 08009KT 15/15 A2971 RMK A01 T01540147  RH  096%=      5-min Rain = 0
KAHS 250243Z 08010KT 15/15 A297 RMK A01 T01540147  RH  096%=      5-min Rain = 0
KAHS 250244Z 09013KT 15/15 A297 RMK A01 T01540147  RH  096%=      5-min Rain = 0
KAHS 250245Z 09011KT 15/15 A297 RMK A01 T01540147  RH  096%=      5-min Rain = 0
KAHS 250246Z 10011KT 15/15 A297 RMK A01 T01540147  RH  096%=      5-min Rain = 0
KAHS 250247Z 09011KT 15/15 A297 RMK A01 T01540147  RH  096%=      5-min Rain = 0
KAHS 250248Z 08011G16KT 15/15 A2971 RMK A01 T01540147  RH  095%=      5-min Rain = 0
KAHS 250249Z 08012KT 16/15 A2971 RMK A01 T01550147  RH  095%=      5-min Rain = 0
KAHS 250250Z 09011KT 16/15 A2971 RMK A01 T01550147  RH  095%=      5-min Rain = 0
KAHS 250251Z 08012KT 16/15 A297 RMK A01 T01550147  RH  095%=      5-min Rain = 0
KAHS 250252Z 08013KT 16/15 A297 RMK A01 T01550146  RH  095%=      5-min Rain = 0
KAHS 250253Z 07013KT 16/15 A297 RMK A01 T01550146  RH  094%=      5-min Rain = 0
KAHS 250254Z 07012KT 16/15 A297 RMK A01 T01550146  RH  094%=      5-min Rain = 0
KAHS 250255Z 07014KT 16/15 A2969 RMK A01 T01550146  RH  094%=      5-min Rain = 0
KAHS 250256Z 07013KT 16/15 A2969 RMK A01 T01550145  RH  094%=      5-min Rain = 0
KAHS 250257Z 07013KT 16/15 A2969 RMK A01 T01550145  RH  094%=      5-min Rain = 0
KAHS 250258Z 06013KT 16/15 A2969 RMK A01 T01550145  RH  094%=      5-min Rain = 0
KAHS 250259Z 07012KT 16/15 A2968 RMK A01 T01550145  RH  094%=      5-min Rain = 0
KAHS 250300Z 07013KT 16/15 A2968 RMK A01 T01550145  RH  094%=      5-min Rain = 0
KAHS 250301Z 07014KT 16/15 A2968 RMK A01 T01550145  RH  094%=      5-min Rain = 0
KAHS 250302Z 07013KT 16/15 A2967 RMK A01 T01560145  RH  093%=      5-min Rain = 0
KAHS 250303Z 08014G19KT 16/15 A2967 RMK A01 T01570145  RH  093%=      5-min Rain = 0
KAHS 250304Z 08014KT 16/15 A2966 RMK A01 T01580145  RH  092%=      5-min Rain = 0
KAHS 250305Z 08013KT 16/14 A2966 RMK A01 T01590144  RH  091%=      5-min Rain = 0
KAHS 250306Z 08012KT 16/14 A2966 RMK A01 T01600144  RH  090%=      5-min Rain = 0
KAHS 250307Z 08014KT 16/14 A2966 RMK A01 T01610143  RH  089%=      5-min Rain = 0
KAHS 250308Z 09011G16KT 16/14 A2966 RMK A01 T01620143  RH  088%=      5-min Rain = 0
KAHS 250309Z 09011G16KT 16/14 A2966 RMK A01 T01630142  RH  088%=      5-min Rain = 0
KAHS 250310Z 09012KT 16/14 A2967 RMK A01 T01630141  RH  087%=      5-min Rain = 0
KAHS 250311Z 10010KT 17/14 A2967 RMK A01 T01650141  RH  085%=      5-min Rain = 0
KAHS 250312Z 09012G18KT 17/14 A2967 RMK A01 T01660140  RH  084%=      5-min Rain = 0
KAHS 250313Z 11007KT 17/14 A2967 RMK A01 T01680139  RH  083%=      5-min Rain = 0
KAHS 250314Z 10009KT 17/14 A2967 RMK A01 T01670139  RH  083%=      5-min Rain = 0
KAHS 250315Z 10008KT 17/14 A2967 RMK A01 T01670139  RH  084%=      5-min Rain = 0
KAHS 250316Z 10009KT 17/14 A2968 RMK A01 T01670139  RH  083%=      5-min Rain = 0
KAHS 250317Z 09009KT 17/14 A2968 RMK A01 T01680139  RH  083%=      5-min Rain = 0
KAHS 250318Z 10007KT 17/14 A2968 RMK A01 T01690138  RH  082%=      5-min Rain = 0
KAHS 250319Z 10009KT 17/14 A2968 RMK A01 T01680138  RH  082%=      5-min Rain = 0
KAHS 250320Z 10009KT 17/14 A2967 RMK A01 T01690138  RH  082%=      5-min Rain = 0
KAHS 250321Z 10010G15KT 17/14 A2967 RMK A01 T01710136  RH  080%=      5-min Rain = 0
KAHS 250322Z 10007KT 17/14 A2967 RMK A01 T01720136  RH  079%=      5-min Rain = 0
KAHS 250323Z 10009KT 17/14 A2968 RMK A01 T01710136  RH  080%=      5-min Rain = 0
KAHS 250324Z 09009KT 17/14 A2968 RMK A01 T01710136  RH  080%=      5-min Rain = 0
KAHS 250325Z 10008KT 17/14 A2968 RMK A01 T01710136  RH  080%=      5-min Rain = 0
KAHS 250326Z 10008KT 17/14 A2968 RMK A01 T01700137  RH  081%=      5-min Rain = 0
KAHS 250327Z 10010KT 17/14 A2968 RMK A01 T01700136  RH  081%=      5-min Rain = 0
KAHS 250328Z 10010KT 17/14 A2968 RMK A01 T01710135  RH  079%=      5-min Rain = 0
KAHS 250329Z 10009KT 17/13 A2968 RMK A01 T01730134  RH  078%=      5-min Rain = 0
KAHS 250330Z 10008KT 17/14 A2968 RMK A01 T01720135  RH  078%=      5-min Rain = 0
KAHS 250331Z 11009KT 17/13 A2968 RMK A01 T01720134  RH  078%=      5-min Rain = 0
KAHS 250332Z 11009KT 17/13 A2968 RMK A01 T01730134  RH  078%=      5-min Rain = 0
KAHS 250333Z 12009KT 17/13 A2968 RMK A01 T01730134  RH  078%=      5-min Rain = 0
KAHS 250334Z 12009KT 17/13 A2968 RMK A01 T01720134  RH  078%=      5-min Rain = 0
KAHS 250335Z 12010KT 17/13 A2968 RMK A01 T01720134  RH  078%=      5-min Rain = 0
KAHS 250336Z 12009KT 17/13 A2968 RMK A01 T01720134  RH  078%=      5-min Rain = 0
KAHS 250337Z 13009KT 17/13 A2968 RMK A01 T01710134  RH  079%=      5-min Rain = 0
KAHS 250338Z 13008KT 17/14 A2969 RMK A01 T01710135  RH  079%=      5-min Rain = 0
KAHS 250339Z 13009KT 17/14 A2969 RMK A01 T01700136  RH  080%=      5-min Rain = 0
KAHS 250340Z 12010KT 17/14 A2969 RMK A01 T01700135  RH  080%=      5-min Rain = 0
KAHS 250341Z 12009KT 17/14 A2969 RMK A01 T01710135  RH  079%=      5-min Rain = 0
KAHS 250342Z 11009KT 17/14 A2969 RMK A01 T01710135  RH  079%=      5-min Rain = 0
KAHS 250343Z 12009KT 17/14 A2969 RMK A01 T01700135  RH  080%=      5-min Rain = 0
KAHS 250344Z 11009KT 17/14 A2969 RMK A01 T01700135  RH  080%=      5-min Rain = 0
KAHS 250345Z 11011KT 17/14 A2969 RMK A01 T01700135  RH  079%=      5-min Rain = 0
KAHS 250346Z 10010KT 17/13 A297 RMK A01 T01710134  RH  079%=      5-min Rain = 0
KAHS 250347Z 11009KT 17/13 A297 RMK A01 T01710134  RH  079%=      5-min Rain = 0
KAHS 250348Z 10010KT 17/14 A297 RMK A01 T01710135  RH  079%=      5-min Rain = 0
KAHS 250349Z 11010KT 17/14 A297 RMK A01 T01710135  RH  079%=      5-min Rain = 0
KAHS 250350Z 10010KT 17/14 A297 RMK A01 T01720135  RH  079%=      5-min Rain = 0
KAHS 250351Z 10015KT 17/14 A297 RMK A01 T01720135  RH  079%=      5-min Rain = 0
KAHS 250352Z 11017KT 17/13 A297 RMK A01 T01740134  RH  077%=      5-min Rain = 0
KAHS 250353Z 10014KT 18/13 A297 RMK A01 T01750133  RH  076%=      5-min Rain = 0
KAHS 250354Z 10013KT 18/13 A2971 RMK A01 T01750133  RH  076%=      5-min Rain = 0
KAHS 250355Z 10013KT 18/13 A2971 RMK A01 T01750134  RH  077%=      5-min Rain = 0
KAHS 250356Z 10011KT 18/13 A2971 RMK A01 T01750134  RH  077%=      5-min Rain = 0
KAHS 250357Z 10011KT 17/13 A2971 RMK A01 T01740134  RH  078%=      5-min Rain = 0
KAHS 250358Z 09012KT 17/13 A2971 RMK A01 T01730134  RH  078%=      5-min Rain = 0
KAHS 250359Z 10010KT 17/14 A2972 RMK A01 T01730135  RH  078%=      5-min Rain = 0
KAHS 250400Z 09014KT 17/14 A2972 RMK A01 T01720135  RH  079%=      5-min Rain = 0
KAHS 250401Z 10009KT 17/14 A2972 RMK A01 T01730135  RH  078%=      5-min Rain = 0
KAHS 250402Z 11010KT 17/14 A2972 RMK A01 T01720136  RH  079%=      5-min Rain = 0
KAHS 250403Z 11011KT 17/14 A2972 RMK A01 T01720136  RH  079%=      5-min Rain = 0
KAHS 250404Z 10012G17KT 17/14 A2972 RMK A01 T01720135  RH  079%=      5-min Rain = 0
KAHS 250405Z 11013G18KT 17/14 A2972 RMK A01 T01720135  RH  079%=      5-min Rain = 0
KAHS 250406Z 10013KT 17/14 A2972 RMK A01 T01720135  RH  079%=      5-min Rain = 0
KAHS 250407Z 10012KT 17/13 A2972 RMK A01 T01720134  RH  078%=      5-min Rain = 0
KAHS 250408Z 11011KT 17/13 A2972 RMK A01 T01730134  RH  078%=      5-min Rain = 0
KAHS 250409Z 11009KT 17/14 A2973 RMK A01 T01720135  RH  078%=      5-min Rain = 0
KAHS 250410Z 10013KT 17/14 A2973 RMK A01 T01720135  RH  079%=      5-min Rain = 0
KAHS 250411Z 10008KT 17/13 A2973 RMK A01 T01730134  RH  078%=      5-min Rain = 0
KAHS 250412Z 10009KT 17/14 A2974 RMK A01 T01720135  RH  079%=      5-min Rain = 0
KAHS 250413Z 10012KT 17/14 A2974 RMK A01 T01720135  RH  079%=      5-min Rain = 0
KAHS 250414Z 10012KT 17/14 A2975 RMK A01 T01720135  RH  078%=      5-min Rain = 0
KAHS 250415Z 10010KT 17/14 A2975 RMK A01 T01720135  RH  079%=      5-min Rain = 0
KAHS 250416Z 10010KT 17/14 A2976 RMK A01 T01720135  RH  079%=      5-min Rain = 0
KAHS 250417Z 10011KT 17/14 A2976 RMK A01 T01720135  RH  079%=      5-min Rain = 0
KAHS 250418Z 10009KT 17/14 A2976 RMK A01 T01720135  RH  079%=      5-min Rain = 0
KAHS 250419Z 10009KT 17/14 A2976 RMK A01 T01710136  RH  080%=      5-min Rain = 0
KAHS 250420Z 10009KT 17/14 A2977 RMK A01 T01710136  RH  080%=      5-min Rain = 0
KAHS 250421Z 10011KT 17/14 A2977 RMK A01 T01700136  RH  080%=      5-min Rain = 0
KAHS 250422Z 10009KT 17/14 A2977 RMK A01 T01700136  RH  080%=      5-min Rain = 0
KAHS 250423Z 10010KT 17/14 A2977 RMK A01 T01700137  RH  081%=      5-min Rain = 0
KAHS 250424Z 11013KT 17/14 A2978 RMK A01 T01710137  RH  080%=      5-min Rain = 0
KAHS 250425Z 10010KT 17/14 A2978 RMK A01 T01710137  RH  081%=      5-min Rain = 0
KAHS 250426Z 10009KT 17/14 A2978 RMK A01 T01700138  RH  081%=      5-min Rain = 0
KAHS 250427Z 11010KT 17/14 A2979 RMK A01 T01700138  RH  082%=      5-min Rain = 0
KAHS 250428Z 10009KT 17/14 A2979 RMK A01 T01700139  RH  082%=      5-min Rain = 0
KAHS 250429Z 10011KT 17/14 A2979 RMK A01 T01690139  RH  082%=      5-min Rain = 0
KAHS 250430Z 10010KT 17/14 A2979 RMK A01 T01690139  RH  083%=      5-min Rain = 0
KAHS 250431Z 09012G17KT 17/14 A2979 RMK A01 T01690140  RH  083%=      5-min Rain = 0
KAHS 250432Z 10011KT 17/14 A2979 RMK A01 T01690140  RH  083%=      5-min Rain = 0
KAHS 250433Z 10012KT 17/14 A298 RMK A01 T01690140  RH  083%=      5-min Rain = 0
KAHS 250434Z 10011KT 17/14 A298 RMK A01 T01690140  RH  083%=      5-min Rain = 0
KAHS 250435Z 10010KT 17/14 A298 RMK A01 T01690141  RH  083%=      5-min Rain = 0
KAHS 250436Z 10008G13KT 17/14 A2979 RMK A01 T01690141  RH  083%=      5-min Rain = 0
KAHS 250437Z 10008KT 17/14 A2979 RMK A01 T01680141  RH  084%=      5-min Rain = 0
KAHS 250438Z 11009G15KT 17/14 A2979 RMK A01 T01680141  RH  084%=      5-min Rain = 0
KAHS 250439Z 10007KT 17/14 A2979 RMK A01 T01680140  RH  084%=      5-min Rain = 0
KAHS 250440Z 10009KT 17/14 A2979 RMK A01 T01680140  RH  084%=      5-min Rain = 0
KAHS 250441Z 10009KT 17/14 A2979 RMK A01 T01690141  RH  083%=      5-min Rain = 0
KAHS 250442Z 10008KT 17/14 A298 RMK A01 T01690141  RH  083%=      5-min Rain = 0
KAHS 250443Z 10010KT 17/14 A298 RMK A01 T01690140  RH  083%=      5-min Rain = 0
KAHS 250444Z 10009KT 17/14 A298 RMK A01 T01690140  RH  083%=      5-min Rain = 0
KAHS 250445Z 09008KT 17/14 A298 RMK A01 T01700140  RH  083%=      5-min Rain = 0
KAHS 250446Z 10007KT 17/14 A298 RMK A01 T01700141  RH  083%=      5-min Rain = 0
KAHS 250447Z 10009KT 17/14 A298 RMK A01 T01700141  RH  083%=      5-min Rain = 0
KAHS 250448Z 09008KT 17/14 A298 RMK A01 T01700141  RH  083%=      5-min Rain = 0
KAHS 250449Z 09007KT 17/14 A298 RMK A01 T01700140  RH  083%=      5-min Rain = 0
KAHS 250450Z 09007KT 17/14 A298 RMK A01 T01700140  RH  083%=      5-min Rain = 0
KAHS 250451Z 09006KT 17/14 A298 RMK A01 T01700141  RH  083%=      5-min Rain = 0
KAHS 250452Z 08006KT 17/14 A298 RMK A01 T01690141  RH  084%=      5-min Rain = 0
KAHS 250453Z 08005KT 17/14 A298 RMK A01 T01680142  RH  084%=      5-min Rain = 0
KAHS 250454Z 08007KT 17/14 A298 RMK A01 T01680142  RH  085%=      5-min Rain = 0
KAHS 250455Z 09006KT 17/14 A298 RMK A01 T01680142  RH  084%=      5-min Rain = 0
KAHS 250456Z 10007KT 17/14 A2979 RMK A01 T01680142  RH  085%=      5-min Rain = 0
KAHS 250457Z 10007KT 17/14 A2979 RMK A01 T01680142  RH  084%=      5-min Rain = 0
KAHS 250458Z 10006KT 17/14 A2979 RMK A01 T01680142  RH  084%=      5-min Rain = 0
KAHS 250459Z 10007KT 17/14 A2979 RMK A01 T01680141  RH  084%=      5-min Rain = 0

Page generated in 0.1534 seconds.